<?xml version="1.0" encoding="UTF-8" standalone="no" ?>
<gpx xmlns="http://www.topografix.com/GPX/1/1" xmlns:xsi="http://www.w3.org/2001/XMLSchema-instance" xsi:schemaLocation="http://www.topografix.com/GPX/1/1 http://www.topografix.com/GPX/1/1/gpx.xsd" version="1.1" creator="VisuGPX - https://www.visugpx.com">
  <metadata>
    <name>Sortie en endurance light Trail</name>
    <desc><![CDATA[Une sorite vers Ampiac]]></desc>
  </metadata>
  <trk>
    <name><![CDATA[65pf1940 on GPSies.com]]></name>
    <trkseg>
      <trkpt lat="44.35005" lon="2.54178">
        <ele>497</ele>
        <time>2016-05-25T15:20:40Z</time>
      </trkpt>
      <trkpt lat="44.35005" lon="2.54179">
        <ele>497</ele>
        <time>2016-05-25T15:20:41Z</time>
      </trkpt>
      <trkpt lat="44.34996" lon="2.54179">
        <ele>499</ele>
        <time>2016-05-25T15:21:38Z</time>
      </trkpt>
      <trkpt lat="44.34992" lon="2.54181">
        <ele>499</ele>
        <time>2016-05-25T15:21:43Z</time>
      </trkpt>
      <trkpt lat="44.34986" lon="2.54184">
        <ele>499</ele>
        <time>2016-05-25T15:21:48Z</time>
      </trkpt>
      <trkpt lat="44.3497" lon="2.54198">
        <ele>500</ele>
        <time>2016-05-25T15:21:57Z</time>
      </trkpt>
      <trkpt lat="44.34954" lon="2.54212">
        <ele>500</ele>
        <time>2016-05-25T15:22:06Z</time>
      </trkpt>
      <trkpt lat="44.34946" lon="2.54219">
        <ele>500</ele>
        <time>2016-05-25T15:22:13Z</time>
      </trkpt>
      <trkpt lat="44.3494" lon="2.54223">
        <ele>500</ele>
        <time>2016-05-25T15:22:22Z</time>
      </trkpt>
      <trkpt lat="44.34927" lon="2.54241">
        <ele>501</ele>
        <time>2016-05-25T15:22:32Z</time>
      </trkpt>
      <trkpt lat="44.34914" lon="2.54259">
        <ele>501</ele>
        <time>2016-05-25T15:22:41Z</time>
      </trkpt>
      <trkpt lat="44.34903" lon="2.5428">
        <ele>501</ele>
        <time>2016-05-25T15:22:49Z</time>
      </trkpt>
      <trkpt lat="44.34894" lon="2.54302">
        <ele>499</ele>
        <time>2016-05-25T15:22:57Z</time>
      </trkpt>
      <trkpt lat="44.34887" lon="2.54326">
        <ele>498</ele>
        <time>2016-05-25T15:23:05Z</time>
      </trkpt>
      <trkpt lat="44.34881" lon="2.54351">
        <ele>495</ele>
        <time>2016-05-25T15:23:13Z</time>
      </trkpt>
      <trkpt lat="44.34867" lon="2.54371">
        <ele>495</ele>
        <time>2016-05-25T15:23:23Z</time>
      </trkpt>
      <trkpt lat="44.3485" lon="2.54376">
        <ele>495</ele>
        <time>2016-05-25T15:23:32Z</time>
      </trkpt>
      <trkpt lat="44.34832" lon="2.54385">
        <ele>496</ele>
        <time>2016-05-25T15:23:41Z</time>
      </trkpt>
      <trkpt lat="44.34814" lon="2.54395">
        <ele>498</ele>
        <time>2016-05-25T15:23:51Z</time>
      </trkpt>
      <trkpt lat="44.34795" lon="2.54392">
        <ele>501</ele>
        <time>2016-05-25T15:24:01Z</time>
      </trkpt>
      <trkpt lat="44.34776" lon="2.54384">
        <ele>504</ele>
        <time>2016-05-25T15:24:10Z</time>
      </trkpt>
      <trkpt lat="44.34759" lon="2.54374">
        <ele>505</ele>
        <time>2016-05-25T15:24:18Z</time>
      </trkpt>
      <trkpt lat="44.34741" lon="2.54365">
        <ele>507</ele>
        <time>2016-05-25T15:24:26Z</time>
      </trkpt>
      <trkpt lat="44.34723" lon="2.54358">
        <ele>509</ele>
        <time>2016-05-25T15:24:34Z</time>
      </trkpt>
      <trkpt lat="44.34705" lon="2.54345">
        <ele>510</ele>
        <time>2016-05-25T15:24:42Z</time>
      </trkpt>
      <trkpt lat="44.34689" lon="2.5433">
        <ele>509</ele>
        <time>2016-05-25T15:24:49Z</time>
      </trkpt>
      <trkpt lat="44.34673" lon="2.54314">
        <ele>510</ele>
        <time>2016-05-25T15:24:57Z</time>
      </trkpt>
      <trkpt lat="44.34656" lon="2.543">
        <ele>508</ele>
        <time>2016-05-25T15:25:05Z</time>
      </trkpt>
      <trkpt lat="44.34639" lon="2.54286">
        <ele>508</ele>
        <time>2016-05-25T15:25:13Z</time>
      </trkpt>
      <trkpt lat="44.34622" lon="2.54271">
        <ele>507</ele>
        <time>2016-05-25T15:25:21Z</time>
      </trkpt>
      <trkpt lat="44.34606" lon="2.54257">
        <ele>506</ele>
        <time>2016-05-25T15:25:28Z</time>
      </trkpt>
      <trkpt lat="44.34591" lon="2.5424">
        <ele>507</ele>
        <time>2016-05-25T15:25:36Z</time>
      </trkpt>
      <trkpt lat="44.34578" lon="2.5422">
        <ele>508</ele>
        <time>2016-05-25T15:25:44Z</time>
      </trkpt>
      <trkpt lat="44.34563" lon="2.54202">
        <ele>508</ele>
        <time>2016-05-25T15:25:52Z</time>
      </trkpt>
      <trkpt lat="44.34549" lon="2.54184">
        <ele>508</ele>
        <time>2016-05-25T15:26:00Z</time>
      </trkpt>
      <trkpt lat="44.34533" lon="2.54168">
        <ele>506</ele>
        <time>2016-05-25T15:26:08Z</time>
      </trkpt>
      <trkpt lat="44.34519" lon="2.5415">
        <ele>504</ele>
        <time>2016-05-25T15:26:16Z</time>
      </trkpt>
      <trkpt lat="44.34503" lon="2.54135">
        <ele>505</ele>
        <time>2016-05-25T15:26:25Z</time>
      </trkpt>
      <trkpt lat="44.34488" lon="2.54118">
        <ele>506</ele>
        <time>2016-05-25T15:26:34Z</time>
      </trkpt>
      <trkpt lat="44.34473" lon="2.54101">
        <ele>510</ele>
        <time>2016-05-25T15:26:44Z</time>
      </trkpt>
      <trkpt lat="44.34459" lon="2.54085">
        <ele>513</ele>
        <time>2016-05-25T15:26:53Z</time>
      </trkpt>
      <trkpt lat="44.34444" lon="2.54068">
        <ele>517</ele>
        <time>2016-05-25T15:27:03Z</time>
      </trkpt>
      <trkpt lat="44.34427" lon="2.54056">
        <ele>514</ele>
        <time>2016-05-25T15:27:15Z</time>
      </trkpt>
      <trkpt lat="44.3441" lon="2.54046">
        <ele>511</ele>
        <time>2016-05-25T15:27:25Z</time>
      </trkpt>
      <trkpt lat="44.34392" lon="2.54035">
        <ele>509</ele>
        <time>2016-05-25T15:27:33Z</time>
      </trkpt>
      <trkpt lat="44.34375" lon="2.54021">
        <ele>504</ele>
        <time>2016-05-25T15:27:42Z</time>
      </trkpt>
      <trkpt lat="44.34366" lon="2.53997">
        <ele>506</ele>
        <time>2016-05-25T15:27:50Z</time>
      </trkpt>
      <trkpt lat="44.3437" lon="2.53973">
        <ele>513</ele>
        <time>2016-05-25T15:27:57Z</time>
      </trkpt>
      <trkpt lat="44.34383" lon="2.53954">
        <ele>514</ele>
        <time>2016-05-25T15:28:04Z</time>
      </trkpt>
      <trkpt lat="44.34396" lon="2.53936">
        <ele>516</ele>
        <time>2016-05-25T15:28:12Z</time>
      </trkpt>
      <trkpt lat="44.34408" lon="2.53917">
        <ele>517</ele>
        <time>2016-05-25T15:28:20Z</time>
      </trkpt>
      <trkpt lat="44.3442" lon="2.53896">
        <ele>517</ele>
        <time>2016-05-25T15:28:28Z</time>
      </trkpt>
      <trkpt lat="44.34425" lon="2.53871">
        <ele>515</ele>
        <time>2016-05-25T15:28:37Z</time>
      </trkpt>
      <trkpt lat="44.34432" lon="2.53846">
        <ele>513</ele>
        <time>2016-05-25T15:28:47Z</time>
      </trkpt>
      <trkpt lat="44.34441" lon="2.53822">
        <ele>513</ele>
        <time>2016-05-25T15:28:55Z</time>
      </trkpt>
      <trkpt lat="44.34445" lon="2.53801">
        <ele>511</ele>
        <time>2016-05-25T15:29:03Z</time>
      </trkpt>
      <trkpt lat="44.34434" lon="2.53801">
        <ele>513</ele>
        <time>2016-05-25T15:29:12Z</time>
      </trkpt>
      <trkpt lat="44.34427" lon="2.538">
        <ele>514</ele>
        <time>2016-05-25T15:29:19Z</time>
      </trkpt>
      <trkpt lat="44.34342" lon="2.53732">
        <ele>557</ele>
        <time>2016-05-25T15:31:22Z</time>
      </trkpt>
      <trkpt lat="44.34329" lon="2.53751">
        <ele>552</ele>
        <time>2016-05-25T15:31:34Z</time>
      </trkpt>
      <trkpt lat="44.34314" lon="2.53767">
        <ele>548</ele>
        <time>2016-05-25T15:31:47Z</time>
      </trkpt>
      <trkpt lat="44.3431" lon="2.53772">
        <ele>547</ele>
        <time>2016-05-25T15:31:51Z</time>
      </trkpt>
      <trkpt lat="44.34315" lon="2.53775">
        <ele>546</ele>
        <time>2016-05-25T15:31:56Z</time>
      </trkpt>
      <trkpt lat="44.34332" lon="2.53783">
        <ele>540</ele>
        <time>2016-05-25T15:32:09Z</time>
      </trkpt>
      <trkpt lat="44.34337" lon="2.53786">
        <ele>540</ele>
        <time>2016-05-25T15:32:13Z</time>
      </trkpt>
      <trkpt lat="44.34335" lon="2.53811">
        <ele>532</ele>
        <time>2016-05-25T15:32:22Z</time>
      </trkpt>
      <trkpt lat="44.3433" lon="2.53818">
        <ele>529</ele>
        <time>2016-05-25T15:32:25Z</time>
      </trkpt>
      <trkpt lat="44.34315" lon="2.53835">
        <ele>524</ele>
        <time>2016-05-25T15:32:34Z</time>
      </trkpt>
      <trkpt lat="44.34297" lon="2.53842">
        <ele>519</ele>
        <time>2016-05-25T15:32:46Z</time>
      </trkpt>
      <trkpt lat="44.34292" lon="2.53851">
        <ele>519</ele>
        <time>2016-05-25T15:32:54Z</time>
      </trkpt>
      <trkpt lat="44.34295" lon="2.53856">
        <ele>523</ele>
        <time>2016-05-25T15:33:23Z</time>
      </trkpt>
      <trkpt lat="44.34292" lon="2.53872">
        <ele>518</ele>
        <time>2016-05-25T15:33:33Z</time>
      </trkpt>
      <trkpt lat="44.34282" lon="2.53872">
        <ele>517</ele>
        <time>2016-05-25T15:33:37Z</time>
      </trkpt>
      <trkpt lat="44.34262" lon="2.53869">
        <ele>515</ele>
        <time>2016-05-25T15:33:46Z</time>
      </trkpt>
      <trkpt lat="44.34244" lon="2.53869">
        <ele>514</ele>
        <time>2016-05-25T15:33:54Z</time>
      </trkpt>
      <trkpt lat="44.34225" lon="2.53871">
        <ele>512</ele>
        <time>2016-05-25T15:34:02Z</time>
      </trkpt>
      <trkpt lat="44.34207" lon="2.53866">
        <ele>510</ele>
        <time>2016-05-25T15:34:10Z</time>
      </trkpt>
      <trkpt lat="44.34189" lon="2.53866">
        <ele>510</ele>
        <time>2016-05-25T15:34:17Z</time>
      </trkpt>
      <trkpt lat="44.34171" lon="2.53865">
        <ele>509</ele>
        <time>2016-05-25T15:34:24Z</time>
      </trkpt>
      <trkpt lat="44.34151" lon="2.53864">
        <ele>507</ele>
        <time>2016-05-25T15:34:33Z</time>
      </trkpt>
      <trkpt lat="44.34132" lon="2.53864">
        <ele>508</ele>
        <time>2016-05-25T15:34:41Z</time>
      </trkpt>
      <trkpt lat="44.34114" lon="2.53864">
        <ele>507</ele>
        <time>2016-05-25T15:34:48Z</time>
      </trkpt>
      <trkpt lat="44.34095" lon="2.53863">
        <ele>507</ele>
        <time>2016-05-25T15:34:56Z</time>
      </trkpt>
      <trkpt lat="44.34076" lon="2.53864">
        <ele>507</ele>
        <time>2016-05-25T15:35:04Z</time>
      </trkpt>
      <trkpt lat="44.34055" lon="2.5386">
        <ele>507</ele>
        <time>2016-05-25T15:35:11Z</time>
      </trkpt>
      <trkpt lat="44.34037" lon="2.53855">
        <ele>506</ele>
        <time>2016-05-25T15:35:18Z</time>
      </trkpt>
      <trkpt lat="44.34019" lon="2.5385">
        <ele>507</ele>
        <time>2016-05-25T15:35:26Z</time>
      </trkpt>
      <trkpt lat="44.34" lon="2.53847">
        <ele>508</ele>
        <time>2016-05-25T15:35:34Z</time>
      </trkpt>
      <trkpt lat="44.33981" lon="2.53846">
        <ele>507</ele>
        <time>2016-05-25T15:35:42Z</time>
      </trkpt>
      <trkpt lat="44.33962" lon="2.53849">
        <ele>510</ele>
        <time>2016-05-25T15:35:49Z</time>
      </trkpt>
      <trkpt lat="44.33943" lon="2.5385">
        <ele>513</ele>
        <time>2016-05-25T15:35:57Z</time>
      </trkpt>
      <trkpt lat="44.33923" lon="2.53846">
        <ele>513</ele>
        <time>2016-05-25T15:36:06Z</time>
      </trkpt>
      <trkpt lat="44.33903" lon="2.53853">
        <ele>512</ele>
        <time>2016-05-25T15:36:14Z</time>
      </trkpt>
      <trkpt lat="44.33884" lon="2.53858">
        <ele>513</ele>
        <time>2016-05-25T15:36:21Z</time>
      </trkpt>
      <trkpt lat="44.33865" lon="2.53862">
        <ele>518</ele>
        <time>2016-05-25T15:36:30Z</time>
      </trkpt>
      <trkpt lat="44.33846" lon="2.53869">
        <ele>526</ele>
        <time>2016-05-25T15:36:41Z</time>
      </trkpt>
      <trkpt lat="44.33827" lon="2.53856">
        <ele>522</ele>
        <time>2016-05-25T15:36:54Z</time>
      </trkpt>
      <trkpt lat="44.33808" lon="2.53852">
        <ele>518</ele>
        <time>2016-05-25T15:37:03Z</time>
      </trkpt>
      <trkpt lat="44.33797" lon="2.5383">
        <ele>516</ele>
        <time>2016-05-25T15:37:11Z</time>
      </trkpt>
      <trkpt lat="44.33793" lon="2.53824">
        <ele>512</ele>
        <time>2016-05-25T15:37:15Z</time>
      </trkpt>
      <trkpt lat="44.33789" lon="2.53808">
        <ele>511</ele>
        <time>2016-05-25T15:37:29Z</time>
      </trkpt>
      <trkpt lat="44.33787" lon="2.53781">
        <ele>508</ele>
        <time>2016-05-25T15:37:39Z</time>
      </trkpt>
      <trkpt lat="44.33785" lon="2.53753">
        <ele>506</ele>
        <time>2016-05-25T15:37:48Z</time>
      </trkpt>
      <trkpt lat="44.33782" lon="2.53728">
        <ele>503</ele>
        <time>2016-05-25T15:37:56Z</time>
      </trkpt>
      <trkpt lat="44.3378" lon="2.537">
        <ele>503</ele>
        <time>2016-05-25T15:38:05Z</time>
      </trkpt>
      <trkpt lat="44.33779" lon="2.53675">
        <ele>505</ele>
        <time>2016-05-25T15:38:13Z</time>
      </trkpt>
      <trkpt lat="44.33778" lon="2.53647">
        <ele>507</ele>
        <time>2016-05-25T15:38:21Z</time>
      </trkpt>
      <trkpt lat="44.33774" lon="2.5362">
        <ele>507</ele>
        <time>2016-05-25T15:38:29Z</time>
      </trkpt>
      <trkpt lat="44.33774" lon="2.53594">
        <ele>506</ele>
        <time>2016-05-25T15:38:36Z</time>
      </trkpt>
      <trkpt lat="44.33769" lon="2.5357">
        <ele>509</ele>
        <time>2016-05-25T15:38:44Z</time>
      </trkpt>
      <trkpt lat="44.33761" lon="2.53545">
        <ele>509</ele>
        <time>2016-05-25T15:38:52Z</time>
      </trkpt>
      <trkpt lat="44.33748" lon="2.53524">
        <ele>510</ele>
        <time>2016-05-25T15:39:00Z</time>
      </trkpt>
      <trkpt lat="44.33735" lon="2.53506">
        <ele>509</ele>
        <time>2016-05-25T15:39:07Z</time>
      </trkpt>
      <trkpt lat="44.33724" lon="2.53482">
        <ele>508</ele>
        <time>2016-05-25T15:39:15Z</time>
      </trkpt>
      <trkpt lat="44.33719" lon="2.53456">
        <ele>505</ele>
        <time>2016-05-25T15:39:22Z</time>
      </trkpt>
      <trkpt lat="44.33716" lon="2.53439">
        <ele>502</ele>
        <time>2016-05-25T15:39:27Z</time>
      </trkpt>
      <trkpt lat="44.33717" lon="2.53437">
        <ele>504</ele>
        <time>2016-05-25T15:39:29Z</time>
      </trkpt>
      <trkpt lat="44.33715" lon="2.53419">
        <ele>504</ele>
        <time>2016-05-25T15:39:41Z</time>
      </trkpt>
      <trkpt lat="44.33708" lon="2.53407">
        <ele>503</ele>
        <time>2016-05-25T15:39:45Z</time>
      </trkpt>
      <trkpt lat="44.33696" lon="2.53387">
        <ele>505</ele>
        <time>2016-05-25T15:39:52Z</time>
      </trkpt>
      <trkpt lat="44.33688" lon="2.53364">
        <ele>504</ele>
        <time>2016-05-25T15:39:59Z</time>
      </trkpt>
      <trkpt lat="44.33679" lon="2.53339">
        <ele>502</ele>
        <time>2016-05-25T15:40:07Z</time>
      </trkpt>
      <trkpt lat="44.3367" lon="2.53317">
        <ele>505</ele>
        <time>2016-05-25T15:40:15Z</time>
      </trkpt>
      <trkpt lat="44.33665" lon="2.53291">
        <ele>507</ele>
        <time>2016-05-25T15:40:24Z</time>
      </trkpt>
      <trkpt lat="44.33656" lon="2.53268">
        <ele>508</ele>
        <time>2016-05-25T15:40:33Z</time>
      </trkpt>
      <trkpt lat="44.33649" lon="2.53243">
        <ele>508</ele>
        <time>2016-05-25T15:40:43Z</time>
      </trkpt>
      <trkpt lat="44.33649" lon="2.53217">
        <ele>502</ele>
        <time>2016-05-25T15:40:53Z</time>
      </trkpt>
      <trkpt lat="44.33648" lon="2.5319">
        <ele>503</ele>
        <time>2016-05-25T15:41:04Z</time>
      </trkpt>
      <trkpt lat="44.33651" lon="2.53165">
        <ele>505</ele>
        <time>2016-05-25T15:41:13Z</time>
      </trkpt>
      <trkpt lat="44.33664" lon="2.53144">
        <ele>509</ele>
        <time>2016-05-25T15:41:22Z</time>
      </trkpt>
      <trkpt lat="44.33678" lon="2.53127">
        <ele>511</ele>
        <time>2016-05-25T15:41:30Z</time>
      </trkpt>
      <trkpt lat="44.33693" lon="2.53113">
        <ele>516</ele>
        <time>2016-05-25T15:41:38Z</time>
      </trkpt>
      <trkpt lat="44.33709" lon="2.53098">
        <ele>520</ele>
        <time>2016-05-25T15:41:47Z</time>
      </trkpt>
      <trkpt lat="44.33725" lon="2.53084">
        <ele>522</ele>
        <time>2016-05-25T15:41:56Z</time>
      </trkpt>
      <trkpt lat="44.33742" lon="2.53073">
        <ele>523</ele>
        <time>2016-05-25T15:42:07Z</time>
      </trkpt>
      <trkpt lat="44.33759" lon="2.53063">
        <ele>523</ele>
        <time>2016-05-25T15:42:19Z</time>
      </trkpt>
      <trkpt lat="44.33776" lon="2.53053">
        <ele>527</ele>
        <time>2016-05-25T15:42:30Z</time>
      </trkpt>
      <trkpt lat="44.33793" lon="2.53042">
        <ele>535</ele>
        <time>2016-05-25T15:42:40Z</time>
      </trkpt>
      <trkpt lat="44.33809" lon="2.5303">
        <ele>542</ele>
        <time>2016-05-25T15:42:50Z</time>
      </trkpt>
      <trkpt lat="44.33826" lon="2.53015">
        <ele>543</ele>
        <time>2016-05-25T15:43:00Z</time>
      </trkpt>
      <trkpt lat="44.33842" lon="2.53001">
        <ele>543</ele>
        <time>2016-05-25T15:43:10Z</time>
      </trkpt>
      <trkpt lat="44.3386" lon="2.52989">
        <ele>543</ele>
        <time>2016-05-25T15:43:21Z</time>
      </trkpt>
      <trkpt lat="44.33877" lon="2.52979">
        <ele>545</ele>
        <time>2016-05-25T15:43:32Z</time>
      </trkpt>
      <trkpt lat="44.33894" lon="2.52969">
        <ele>548</ele>
        <time>2016-05-25T15:43:44Z</time>
      </trkpt>
      <trkpt lat="44.33911" lon="2.52962">
        <ele>552</ele>
        <time>2016-05-25T15:43:55Z</time>
      </trkpt>
      <trkpt lat="44.33929" lon="2.52951">
        <ele>556</ele>
        <time>2016-05-25T15:44:08Z</time>
      </trkpt>
      <trkpt lat="44.33942" lon="2.52931">
        <ele>554</ele>
        <time>2016-05-25T15:44:19Z</time>
      </trkpt>
      <trkpt lat="44.33955" lon="2.52912">
        <ele>553</ele>
        <time>2016-05-25T15:44:28Z</time>
      </trkpt>
      <trkpt lat="44.33967" lon="2.52891">
        <ele>551</ele>
        <time>2016-05-25T15:44:36Z</time>
      </trkpt>
      <trkpt lat="44.33977" lon="2.52869">
        <ele>551</ele>
        <time>2016-05-25T15:44:44Z</time>
      </trkpt>
      <trkpt lat="44.3399" lon="2.52848">
        <ele>551</ele>
        <time>2016-05-25T15:44:52Z</time>
      </trkpt>
      <trkpt lat="44.34003" lon="2.52831">
        <ele>554</ele>
        <time>2016-05-25T15:45:00Z</time>
      </trkpt>
      <trkpt lat="44.34014" lon="2.52811">
        <ele>552</ele>
        <time>2016-05-25T15:45:08Z</time>
      </trkpt>
      <trkpt lat="44.34027" lon="2.52791">
        <ele>548</ele>
        <time>2016-05-25T15:45:15Z</time>
      </trkpt>
      <trkpt lat="44.3404" lon="2.52772">
        <ele>542</ele>
        <time>2016-05-25T15:45:22Z</time>
      </trkpt>
      <trkpt lat="44.34052" lon="2.52753">
        <ele>537</ele>
        <time>2016-05-25T15:45:28Z</time>
      </trkpt>
      <trkpt lat="44.34066" lon="2.52734">
        <ele>533</ele>
        <time>2016-05-25T15:45:35Z</time>
      </trkpt>
      <trkpt lat="44.34076" lon="2.52709">
        <ele>529</ele>
        <time>2016-05-25T15:45:42Z</time>
      </trkpt>
      <trkpt lat="44.34086" lon="2.52685">
        <ele>525</ele>
        <time>2016-05-25T15:45:48Z</time>
      </trkpt>
      <trkpt lat="44.34096" lon="2.52663">
        <ele>521</ele>
        <time>2016-05-25T15:45:55Z</time>
      </trkpt>
      <trkpt lat="44.34109" lon="2.52643">
        <ele>519</ele>
        <time>2016-05-25T15:46:02Z</time>
      </trkpt>
      <trkpt lat="44.34123" lon="2.52623">
        <ele>515</ele>
        <time>2016-05-25T15:46:09Z</time>
      </trkpt>
      <trkpt lat="44.34132" lon="2.52598">
        <ele>512</ele>
        <time>2016-05-25T15:46:16Z</time>
      </trkpt>
      <trkpt lat="44.34136" lon="2.5257">
        <ele>509</ele>
        <time>2016-05-25T15:46:23Z</time>
      </trkpt>
      <trkpt lat="44.3414" lon="2.52546">
        <ele>509</ele>
        <time>2016-05-25T15:46:29Z</time>
      </trkpt>
      <trkpt lat="44.34147" lon="2.52521">
        <ele>508</ele>
        <time>2016-05-25T15:46:36Z</time>
      </trkpt>
      <trkpt lat="44.34157" lon="2.52497">
        <ele>507</ele>
        <time>2016-05-25T15:46:43Z</time>
      </trkpt>
      <trkpt lat="44.34167" lon="2.52472">
        <ele>504</ele>
        <time>2016-05-25T15:46:50Z</time>
      </trkpt>
      <trkpt lat="44.34178" lon="2.52449">
        <ele>501</ele>
        <time>2016-05-25T15:46:57Z</time>
      </trkpt>
      <trkpt lat="44.34188" lon="2.52428">
        <ele>499</ele>
        <time>2016-05-25T15:47:04Z</time>
      </trkpt>
      <trkpt lat="44.34196" lon="2.52405">
        <ele>497</ele>
        <time>2016-05-25T15:47:10Z</time>
      </trkpt>
      <trkpt lat="44.34203" lon="2.52378">
        <ele>496</ele>
        <time>2016-05-25T15:47:17Z</time>
      </trkpt>
      <trkpt lat="44.34209" lon="2.52351">
        <ele>494</ele>
        <time>2016-05-25T15:47:24Z</time>
      </trkpt>
      <trkpt lat="44.34212" lon="2.52325">
        <ele>492</ele>
        <time>2016-05-25T15:47:31Z</time>
      </trkpt>
      <trkpt lat="44.34216" lon="2.523">
        <ele>491</ele>
        <time>2016-05-25T15:47:37Z</time>
      </trkpt>
      <trkpt lat="44.34215" lon="2.52274">
        <ele>489</ele>
        <time>2016-05-25T15:47:44Z</time>
      </trkpt>
      <trkpt lat="44.34213" lon="2.52247">
        <ele>489</ele>
        <time>2016-05-25T15:47:51Z</time>
      </trkpt>
      <trkpt lat="44.34203" lon="2.52226">
        <ele>491</ele>
        <time>2016-05-25T15:47:58Z</time>
      </trkpt>
      <trkpt lat="44.34191" lon="2.52208">
        <ele>492</ele>
        <time>2016-05-25T15:48:05Z</time>
      </trkpt>
      <trkpt lat="44.34175" lon="2.52194">
        <ele>495</ele>
        <time>2016-05-25T15:48:12Z</time>
      </trkpt>
      <trkpt lat="44.3416" lon="2.52179">
        <ele>494</ele>
        <time>2016-05-25T15:48:19Z</time>
      </trkpt>
      <trkpt lat="44.34144" lon="2.52162">
        <ele>494</ele>
        <time>2016-05-25T15:48:27Z</time>
      </trkpt>
      <trkpt lat="44.34127" lon="2.5215">
        <ele>493</ele>
        <time>2016-05-25T15:48:35Z</time>
      </trkpt>
      <trkpt lat="44.34109" lon="2.52139">
        <ele>491</ele>
        <time>2016-05-25T15:48:43Z</time>
      </trkpt>
      <trkpt lat="44.3409" lon="2.52137">
        <ele>488</ele>
        <time>2016-05-25T15:48:51Z</time>
      </trkpt>
      <trkpt lat="44.34071" lon="2.52134">
        <ele>489</ele>
        <time>2016-05-25T15:48:59Z</time>
      </trkpt>
      <trkpt lat="44.34054" lon="2.52143">
        <ele>487</ele>
        <time>2016-05-25T15:49:10Z</time>
      </trkpt>
      <trkpt lat="44.34052" lon="2.52143">
        <ele>486</ele>
        <time>2016-05-25T15:49:12Z</time>
      </trkpt>
      <trkpt lat="44.34048" lon="2.52134">
        <ele>485</ele>
        <time>2016-05-25T15:49:26Z</time>
      </trkpt>
      <trkpt lat="44.34032" lon="2.52135">
        <ele>487</ele>
        <time>2016-05-25T15:49:37Z</time>
      </trkpt>
      <trkpt lat="44.34013" lon="2.52135">
        <ele>488</ele>
        <time>2016-05-25T15:49:46Z</time>
      </trkpt>
      <trkpt lat="44.33995" lon="2.52134">
        <ele>488</ele>
        <time>2016-05-25T15:49:54Z</time>
      </trkpt>
      <trkpt lat="44.33977" lon="2.52135">
        <ele>486</ele>
        <time>2016-05-25T15:50:03Z</time>
      </trkpt>
      <trkpt lat="44.33958" lon="2.52136">
        <ele>487</ele>
        <time>2016-05-25T15:50:11Z</time>
      </trkpt>
      <trkpt lat="44.3394" lon="2.52134">
        <ele>489</ele>
        <time>2016-05-25T15:50:19Z</time>
      </trkpt>
      <trkpt lat="44.3392" lon="2.5213">
        <ele>491</ele>
        <time>2016-05-25T15:50:27Z</time>
      </trkpt>
      <trkpt lat="44.339" lon="2.52125">
        <ele>493</ele>
        <time>2016-05-25T15:50:35Z</time>
      </trkpt>
      <trkpt lat="44.33882" lon="2.52118">
        <ele>493</ele>
        <time>2016-05-25T15:50:42Z</time>
      </trkpt>
      <trkpt lat="44.33884" lon="2.52115">
        <ele>492</ele>
        <time>2016-05-25T15:50:44Z</time>
      </trkpt>
      <trkpt lat="44.33886" lon="2.52113">
        <ele>492</ele>
        <time>2016-05-25T15:50:48Z</time>
      </trkpt>
      <trkpt lat="44.33892" lon="2.52106">
        <ele>495</ele>
        <time>2016-05-25T15:50:58Z</time>
      </trkpt>
      <trkpt lat="44.3391" lon="2.52098">
        <ele>503</ele>
        <time>2016-05-25T15:51:17Z</time>
      </trkpt>
      <trkpt lat="44.33926" lon="2.52088">
        <ele>519</ele>
        <time>2016-05-25T15:51:37Z</time>
      </trkpt>
      <trkpt lat="44.33927" lon="2.52087">
        <ele>519</ele>
        <time>2016-05-25T15:51:38Z</time>
      </trkpt>
      <trkpt lat="44.33987" lon="2.52043">
        <ele>541</ele>
        <time>2016-05-25T15:52:55Z</time>
      </trkpt>
      <trkpt lat="44.33992" lon="2.52039">
        <ele>543</ele>
        <time>2016-05-25T15:53:03Z</time>
      </trkpt>
      <trkpt lat="44.3402" lon="2.52031">
        <ele>546</ele>
        <time>2016-05-25T15:53:37Z</time>
      </trkpt>
      <trkpt lat="44.34029" lon="2.52029">
        <ele>550</ele>
        <time>2016-05-25T15:53:47Z</time>
      </trkpt>
      <trkpt lat="44.34052" lon="2.52015">
        <ele>551</ele>
        <time>2016-05-25T15:54:18Z</time>
      </trkpt>
      <trkpt lat="44.34067" lon="2.51999">
        <ele>549</ele>
        <time>2016-05-25T15:54:34Z</time>
      </trkpt>
      <trkpt lat="44.34068" lon="2.51998">
        <ele>549</ele>
        <time>2016-05-25T15:54:35Z</time>
      </trkpt>
      <trkpt lat="44.34069" lon="2.51998">
        <ele>550</ele>
        <time>2016-05-25T15:54:38Z</time>
      </trkpt>
      <trkpt lat="44.3408" lon="2.52">
        <ele>553</ele>
        <time>2016-05-25T15:54:53Z</time>
      </trkpt>
      <trkpt lat="44.34091" lon="2.5202">
        <ele>559</ele>
        <time>2016-05-25T15:55:07Z</time>
      </trkpt>
      <trkpt lat="44.34096" lon="2.52019">
        <ele>561</ele>
        <time>2016-05-25T15:55:11Z</time>
      </trkpt>
      <trkpt lat="44.34113" lon="2.52016">
        <ele>558</ele>
        <time>2016-05-25T15:55:22Z</time>
      </trkpt>
      <trkpt lat="44.34118" lon="2.52024">
        <ele>559</ele>
        <time>2016-05-25T15:55:27Z</time>
      </trkpt>
      <trkpt lat="44.34125" lon="2.52019">
        <ele>561</ele>
        <time>2016-05-25T15:55:32Z</time>
      </trkpt>
      <trkpt lat="44.34141" lon="2.52012">
        <ele>565</ele>
        <time>2016-05-25T15:55:51Z</time>
      </trkpt>
      <trkpt lat="44.34157" lon="2.52018">
        <ele>574</ele>
        <time>2016-05-25T15:56:06Z</time>
      </trkpt>
      <trkpt lat="44.34161" lon="2.52015">
        <ele>577</ele>
        <time>2016-05-25T15:56:10Z</time>
      </trkpt>
      <trkpt lat="44.34175" lon="2.52016">
        <ele>582</ele>
        <time>2016-05-25T15:56:24Z</time>
      </trkpt>
      <trkpt lat="44.3426" lon="2.52032">
        <ele>592</ele>
        <time>2016-05-25T15:59:09Z</time>
      </trkpt>
      <trkpt lat="44.34247" lon="2.52014">
        <ele>589</ele>
        <time>2016-05-25T15:59:21Z</time>
      </trkpt>
      <trkpt lat="44.34235" lon="2.51994">
        <ele>588</ele>
        <time>2016-05-25T15:59:31Z</time>
      </trkpt>
      <trkpt lat="44.34223" lon="2.51986">
        <ele>588</ele>
        <time>2016-05-25T15:59:41Z</time>
      </trkpt>
      <trkpt lat="44.34201" lon="2.51967">
        <ele>594</ele>
        <time>2016-05-25T16:00:17Z</time>
      </trkpt>
      <trkpt lat="44.34182" lon="2.51964">
        <ele>597</ele>
        <time>2016-05-25T16:00:31Z</time>
      </trkpt>
      <trkpt lat="44.34175" lon="2.5196">
        <ele>595</ele>
        <time>2016-05-25T16:00:41Z</time>
      </trkpt>
      <trkpt lat="44.34154" lon="2.51951">
        <ele>593</ele>
        <time>2016-05-25T16:01:00Z</time>
      </trkpt>
      <trkpt lat="44.34135" lon="2.51952">
        <ele>595</ele>
        <time>2016-05-25T16:01:11Z</time>
      </trkpt>
      <trkpt lat="44.34117" lon="2.51943">
        <ele>600</ele>
        <time>2016-05-25T16:01:26Z</time>
      </trkpt>
      <trkpt lat="44.34099" lon="2.51935">
        <ele>602</ele>
        <time>2016-05-25T16:01:38Z</time>
      </trkpt>
      <trkpt lat="44.34081" lon="2.5193">
        <ele>597</ele>
        <time>2016-05-25T16:01:50Z</time>
      </trkpt>
      <trkpt lat="44.34064" lon="2.51939">
        <ele>599</ele>
        <time>2016-05-25T16:02:05Z</time>
      </trkpt>
      <trkpt lat="44.34047" lon="2.51947">
        <ele>600</ele>
        <time>2016-05-25T16:02:19Z</time>
      </trkpt>
      <trkpt lat="44.34042" lon="2.51946">
        <ele>599</ele>
        <time>2016-05-25T16:02:23Z</time>
      </trkpt>
      <trkpt lat="44.34018" lon="2.51936">
        <ele>600</ele>
        <time>2016-05-25T16:02:44Z</time>
      </trkpt>
      <trkpt lat="44.34" lon="2.51936">
        <ele>602</ele>
        <time>2016-05-25T16:02:56Z</time>
      </trkpt>
      <trkpt lat="44.33982" lon="2.51935">
        <ele>603</ele>
        <time>2016-05-25T16:03:06Z</time>
      </trkpt>
      <trkpt lat="44.33963" lon="2.51931">
        <ele>602</ele>
        <time>2016-05-25T16:03:17Z</time>
      </trkpt>
      <trkpt lat="44.33948" lon="2.51931">
        <ele>603</ele>
        <time>2016-05-25T16:03:31Z</time>
      </trkpt>
      <trkpt lat="44.33918" lon="2.51925">
        <ele>601</ele>
        <time>2016-05-25T16:03:53Z</time>
      </trkpt>
      <trkpt lat="44.33901" lon="2.51917">
        <ele>601</ele>
        <time>2016-05-25T16:04:06Z</time>
      </trkpt>
      <trkpt lat="44.33883" lon="2.51911">
        <ele>599</ele>
        <time>2016-05-25T16:04:20Z</time>
      </trkpt>
      <trkpt lat="44.33865" lon="2.51904">
        <ele>598</ele>
        <time>2016-05-25T16:04:33Z</time>
      </trkpt>
      <trkpt lat="44.33847" lon="2.519">
        <ele>595</ele>
        <time>2016-05-25T16:04:47Z</time>
      </trkpt>
      <trkpt lat="44.33829" lon="2.51893">
        <ele>595</ele>
        <time>2016-05-25T16:05:03Z</time>
      </trkpt>
      <trkpt lat="44.33811" lon="2.51889">
        <ele>591</ele>
        <time>2016-05-25T16:05:15Z</time>
      </trkpt>
      <trkpt lat="44.33792" lon="2.51887">
        <ele>589</ele>
        <time>2016-05-25T16:05:25Z</time>
      </trkpt>
      <trkpt lat="44.33775" lon="2.5188">
        <ele>582</ele>
        <time>2016-05-25T16:05:36Z</time>
      </trkpt>
      <trkpt lat="44.33774" lon="2.5188">
        <ele>582</ele>
        <time>2016-05-25T16:05:37Z</time>
      </trkpt>
      <trkpt lat="44.33748" lon="2.5188">
        <ele>580</ele>
        <time>2016-05-25T16:06:43Z</time>
      </trkpt>
      <trkpt lat="44.33731" lon="2.51882">
        <ele>578</ele>
        <time>2016-05-25T16:07:00Z</time>
      </trkpt>
      <trkpt lat="44.33713" lon="2.51882">
        <ele>570</ele>
        <time>2016-05-25T16:07:18Z</time>
      </trkpt>
      <trkpt lat="44.33695" lon="2.51886">
        <ele>562</ele>
        <time>2016-05-25T16:07:36Z</time>
      </trkpt>
      <trkpt lat="44.33677" lon="2.51892">
        <ele>557</ele>
        <time>2016-05-25T16:07:53Z</time>
      </trkpt>
      <trkpt lat="44.3366" lon="2.51898">
        <ele>548</ele>
        <time>2016-05-25T16:08:13Z</time>
      </trkpt>
      <trkpt lat="44.33642" lon="2.51901">
        <ele>542</ele>
        <time>2016-05-25T16:08:30Z</time>
      </trkpt>
      <trkpt lat="44.33627" lon="2.51916">
        <ele>536</ele>
        <time>2016-05-25T16:08:49Z</time>
      </trkpt>
      <trkpt lat="44.33608" lon="2.51922">
        <ele>530</ele>
        <time>2016-05-25T16:09:03Z</time>
      </trkpt>
      <trkpt lat="44.3359" lon="2.51918">
        <ele>522</ele>
        <time>2016-05-25T16:09:22Z</time>
      </trkpt>
      <trkpt lat="44.33571" lon="2.51918">
        <ele>517</ele>
        <time>2016-05-25T16:09:39Z</time>
      </trkpt>
      <trkpt lat="44.33554" lon="2.51914">
        <ele>512</ele>
        <time>2016-05-25T16:09:58Z</time>
      </trkpt>
      <trkpt lat="44.3354" lon="2.51898">
        <ele>505</ele>
        <time>2016-05-25T16:10:15Z</time>
      </trkpt>
      <trkpt lat="44.33527" lon="2.5188">
        <ele>500</ele>
        <time>2016-05-25T16:10:31Z</time>
      </trkpt>
      <trkpt lat="44.33528" lon="2.51876">
        <ele>499</ele>
        <time>2016-05-25T16:10:35Z</time>
      </trkpt>
      <trkpt lat="44.33541" lon="2.51853">
        <ele>505</ele>
        <time>2016-05-25T16:11:05Z</time>
      </trkpt>
      <trkpt lat="44.33553" lon="2.51834">
        <ele>510</ele>
        <time>2016-05-25T16:11:16Z</time>
      </trkpt>
      <trkpt lat="44.33554" lon="2.51832">
        <ele>511</ele>
        <time>2016-05-25T16:11:20Z</time>
      </trkpt>
      <trkpt lat="44.3357" lon="2.51804">
        <ele>523</ele>
        <time>2016-05-25T16:12:08Z</time>
      </trkpt>
      <trkpt lat="44.3358" lon="2.51782">
        <ele>524</ele>
        <time>2016-05-25T16:12:21Z</time>
      </trkpt>
      <trkpt lat="44.33593" lon="2.51763">
        <ele>528</ele>
        <time>2016-05-25T16:12:30Z</time>
      </trkpt>
      <trkpt lat="44.33605" lon="2.51744">
        <ele>532</ele>
        <time>2016-05-25T16:12:39Z</time>
      </trkpt>
      <trkpt lat="44.33617" lon="2.51724">
        <ele>536</ele>
        <time>2016-05-25T16:12:51Z</time>
      </trkpt>
      <trkpt lat="44.3363" lon="2.51705">
        <ele>538</ele>
        <time>2016-05-25T16:13:03Z</time>
      </trkpt>
      <trkpt lat="44.33643" lon="2.51684">
        <ele>538</ele>
        <time>2016-05-25T16:13:17Z</time>
      </trkpt>
      <trkpt lat="44.33654" lon="2.51663">
        <ele>544</ele>
        <time>2016-05-25T16:13:30Z</time>
      </trkpt>
      <trkpt lat="44.33666" lon="2.51642">
        <ele>549</ele>
        <time>2016-05-25T16:13:43Z</time>
      </trkpt>
      <trkpt lat="44.33677" lon="2.51622">
        <ele>552</ele>
        <time>2016-05-25T16:13:56Z</time>
      </trkpt>
      <trkpt lat="44.33689" lon="2.51604">
        <ele>557</ele>
        <time>2016-05-25T16:14:10Z</time>
      </trkpt>
      <trkpt lat="44.33705" lon="2.5159">
        <ele>560</ele>
        <time>2016-05-25T16:14:23Z</time>
      </trkpt>
      <trkpt lat="44.33722" lon="2.51576">
        <ele>560</ele>
        <time>2016-05-25T16:14:38Z</time>
      </trkpt>
      <trkpt lat="44.3374" lon="2.51568">
        <ele>560</ele>
        <time>2016-05-25T16:14:51Z</time>
      </trkpt>
      <trkpt lat="44.33757" lon="2.51561">
        <ele>561</ele>
        <time>2016-05-25T16:15:05Z</time>
      </trkpt>
      <trkpt lat="44.33775" lon="2.51554">
        <ele>569</ele>
        <time>2016-05-25T16:15:20Z</time>
      </trkpt>
      <trkpt lat="44.33793" lon="2.51549">
        <ele>571</ele>
        <time>2016-05-25T16:15:34Z</time>
      </trkpt>
      <trkpt lat="44.33811" lon="2.51541">
        <ele>581</ele>
        <time>2016-05-25T16:15:48Z</time>
      </trkpt>
      <trkpt lat="44.33823" lon="2.51539">
        <ele>583</ele>
        <time>2016-05-25T16:15:58Z</time>
      </trkpt>
      <trkpt lat="44.33835" lon="2.51529">
        <ele>583</ele>
        <time>2016-05-25T16:16:09Z</time>
      </trkpt>
      <trkpt lat="44.3384" lon="2.51517">
        <ele>580</ele>
        <time>2016-05-25T16:16:18Z</time>
      </trkpt>
      <trkpt lat="44.3383" lon="2.515">
        <ele>575</ele>
        <time>2016-05-25T16:16:29Z</time>
      </trkpt>
      <trkpt lat="44.33818" lon="2.5148">
        <ele>558</ele>
        <time>2016-05-25T16:16:39Z</time>
      </trkpt>
      <trkpt lat="44.33812" lon="2.51453">
        <ele>554</ele>
        <time>2016-05-25T16:16:46Z</time>
      </trkpt>
      <trkpt lat="44.33814" lon="2.51425">
        <ele>553</ele>
        <time>2016-05-25T16:16:53Z</time>
      </trkpt>
      <trkpt lat="44.33819" lon="2.514">
        <ele>551</ele>
        <time>2016-05-25T16:17:00Z</time>
      </trkpt>
      <trkpt lat="44.33825" lon="2.51373">
        <ele>547</ele>
        <time>2016-05-25T16:17:08Z</time>
      </trkpt>
      <trkpt lat="44.33825" lon="2.51371">
        <ele>547</ele>
        <time>2016-05-25T16:17:09Z</time>
      </trkpt>
      <trkpt lat="44.33816" lon="2.51371">
        <ele>545</ele>
        <time>2016-05-25T16:17:14Z</time>
      </trkpt>
      <trkpt lat="44.338" lon="2.51385">
        <ele>544</ele>
        <time>2016-05-25T16:17:21Z</time>
      </trkpt>
      <trkpt lat="44.33787" lon="2.51402">
        <ele>542</ele>
        <time>2016-05-25T16:17:28Z</time>
      </trkpt>
      <trkpt lat="44.33773" lon="2.51423">
        <ele>542</ele>
        <time>2016-05-25T16:17:36Z</time>
      </trkpt>
      <trkpt lat="44.33755" lon="2.51431">
        <ele>544</ele>
        <time>2016-05-25T16:17:42Z</time>
      </trkpt>
      <trkpt lat="44.33745" lon="2.51411">
        <ele>540</ele>
        <time>2016-05-25T16:17:49Z</time>
      </trkpt>
      <trkpt lat="44.33748" lon="2.51386">
        <ele>538</ele>
        <time>2016-05-25T16:17:56Z</time>
      </trkpt>
      <trkpt lat="44.33752" lon="2.51361">
        <ele>538</ele>
        <time>2016-05-25T16:18:03Z</time>
      </trkpt>
      <trkpt lat="44.33757" lon="2.51336">
        <ele>537</ele>
        <time>2016-05-25T16:18:10Z</time>
      </trkpt>
      <trkpt lat="44.33763" lon="2.51311">
        <ele>534</ele>
        <time>2016-05-25T16:18:17Z</time>
      </trkpt>
      <trkpt lat="44.33768" lon="2.51286">
        <ele>531</ele>
        <time>2016-05-25T16:18:24Z</time>
      </trkpt>
      <trkpt lat="44.33774" lon="2.51261">
        <ele>528</ele>
        <time>2016-05-25T16:18:31Z</time>
      </trkpt>
      <trkpt lat="44.33779" lon="2.51234">
        <ele>524</ele>
        <time>2016-05-25T16:18:38Z</time>
      </trkpt>
      <trkpt lat="44.33783" lon="2.51207">
        <ele>522</ele>
        <time>2016-05-25T16:18:45Z</time>
      </trkpt>
      <trkpt lat="44.33786" lon="2.51182">
        <ele>523</ele>
        <time>2016-05-25T16:18:52Z</time>
      </trkpt>
      <trkpt lat="44.3379" lon="2.51156">
        <ele>520</ele>
        <time>2016-05-25T16:18:59Z</time>
      </trkpt>
      <trkpt lat="44.33794" lon="2.5113">
        <ele>517</ele>
        <time>2016-05-25T16:19:06Z</time>
      </trkpt>
      <trkpt lat="44.338" lon="2.51106">
        <ele>516</ele>
        <time>2016-05-25T16:19:13Z</time>
      </trkpt>
      <trkpt lat="44.33811" lon="2.51082">
        <ele>513</ele>
        <time>2016-05-25T16:19:20Z</time>
      </trkpt>
      <trkpt lat="44.33822" lon="2.51059">
        <ele>512</ele>
        <time>2016-05-25T16:19:27Z</time>
      </trkpt>
      <trkpt lat="44.33834" lon="2.51039">
        <ele>512</ele>
        <time>2016-05-25T16:19:34Z</time>
      </trkpt>
      <trkpt lat="44.33853" lon="2.51036">
        <ele>514</ele>
        <time>2016-05-25T16:19:42Z</time>
      </trkpt>
      <trkpt lat="44.3387" lon="2.51052">
        <ele>516</ele>
        <time>2016-05-25T16:19:50Z</time>
      </trkpt>
      <trkpt lat="44.33888" lon="2.51062">
        <ele>517</ele>
        <time>2016-05-25T16:19:59Z</time>
      </trkpt>
      <trkpt lat="44.33908" lon="2.51069">
        <ele>521</ele>
        <time>2016-05-25T16:20:08Z</time>
      </trkpt>
      <trkpt lat="44.33927" lon="2.51075">
        <ele>525</ele>
        <time>2016-05-25T16:20:16Z</time>
      </trkpt>
      <trkpt lat="44.33947" lon="2.51077">
        <ele>529</ele>
        <time>2016-05-25T16:20:24Z</time>
      </trkpt>
      <trkpt lat="44.33966" lon="2.51075">
        <ele>528</ele>
        <time>2016-05-25T16:20:32Z</time>
      </trkpt>
      <trkpt lat="44.33984" lon="2.51071">
        <ele>526</ele>
        <time>2016-05-25T16:20:39Z</time>
      </trkpt>
      <trkpt lat="44.34003" lon="2.51063">
        <ele>525</ele>
        <time>2016-05-25T16:20:46Z</time>
      </trkpt>
      <trkpt lat="44.34021" lon="2.51053">
        <ele>521</ele>
        <time>2016-05-25T16:20:53Z</time>
      </trkpt>
      <trkpt lat="44.34035" lon="2.51037">
        <ele>519</ele>
        <time>2016-05-25T16:21:00Z</time>
      </trkpt>
      <trkpt lat="44.34046" lon="2.51017">
        <ele>515</ele>
        <time>2016-05-25T16:21:07Z</time>
      </trkpt>
      <trkpt lat="44.34062" lon="2.50997">
        <ele>511</ele>
        <time>2016-05-25T16:21:14Z</time>
      </trkpt>
      <trkpt lat="44.34074" lon="2.50975">
        <ele>508</ele>
        <time>2016-05-25T16:21:21Z</time>
      </trkpt>
      <trkpt lat="44.34084" lon="2.50955">
        <ele>507</ele>
        <time>2016-05-25T16:21:27Z</time>
      </trkpt>
      <trkpt lat="44.341" lon="2.50938">
        <ele>508</ele>
        <time>2016-05-25T16:21:34Z</time>
      </trkpt>
      <trkpt lat="44.34115" lon="2.50922">
        <ele>505</ele>
        <time>2016-05-25T16:21:41Z</time>
      </trkpt>
      <trkpt lat="44.34128" lon="2.50899">
        <ele>504</ele>
        <time>2016-05-25T16:21:48Z</time>
      </trkpt>
      <trkpt lat="44.34139" lon="2.50875">
        <ele>501</ele>
        <time>2016-05-25T16:21:55Z</time>
      </trkpt>
      <trkpt lat="44.34147" lon="2.50851">
        <ele>499</ele>
        <time>2016-05-25T16:22:02Z</time>
      </trkpt>
      <trkpt lat="44.34154" lon="2.50826">
        <ele>497</ele>
        <time>2016-05-25T16:22:09Z</time>
      </trkpt>
      <trkpt lat="44.34162" lon="2.50801">
        <ele>494</ele>
        <time>2016-05-25T16:22:17Z</time>
      </trkpt>
      <trkpt lat="44.3417" lon="2.50777">
        <ele>493</ele>
        <time>2016-05-25T16:22:24Z</time>
      </trkpt>
      <trkpt lat="44.34178" lon="2.50754">
        <ele>491</ele>
        <time>2016-05-25T16:22:31Z</time>
      </trkpt>
      <trkpt lat="44.34186" lon="2.5073">
        <ele>490</ele>
        <time>2016-05-25T16:22:38Z</time>
      </trkpt>
      <trkpt lat="44.34192" lon="2.50706">
        <ele>491</ele>
        <time>2016-05-25T16:22:45Z</time>
      </trkpt>
      <trkpt lat="44.34199" lon="2.50682">
        <ele>492</ele>
        <time>2016-05-25T16:22:52Z</time>
      </trkpt>
      <trkpt lat="44.34206" lon="2.50657">
        <ele>492</ele>
        <time>2016-05-25T16:22:59Z</time>
      </trkpt>
      <trkpt lat="44.34212" lon="2.50633">
        <ele>492</ele>
        <time>2016-05-25T16:23:06Z</time>
      </trkpt>
      <trkpt lat="44.34217" lon="2.50607">
        <ele>494</ele>
        <time>2016-05-25T16:23:14Z</time>
      </trkpt>
      <trkpt lat="44.34221" lon="2.50581">
        <ele>497</ele>
        <time>2016-05-25T16:23:21Z</time>
      </trkpt>
      <trkpt lat="44.34225" lon="2.50556">
        <ele>498</ele>
        <time>2016-05-25T16:23:29Z</time>
      </trkpt>
      <trkpt lat="44.34228" lon="2.5053">
        <ele>496</ele>
        <time>2016-05-25T16:23:37Z</time>
      </trkpt>
      <trkpt lat="44.34232" lon="2.50502">
        <ele>495</ele>
        <time>2016-05-25T16:23:45Z</time>
      </trkpt>
      <trkpt lat="44.34232" lon="2.50476">
        <ele>495</ele>
        <time>2016-05-25T16:23:52Z</time>
      </trkpt>
      <trkpt lat="44.34232" lon="2.50448">
        <ele>492</ele>
        <time>2016-05-25T16:23:59Z</time>
      </trkpt>
      <trkpt lat="44.34232" lon="2.50422">
        <ele>490</ele>
        <time>2016-05-25T16:24:06Z</time>
      </trkpt>
      <trkpt lat="44.34225" lon="2.50396">
        <ele>487</ele>
        <time>2016-05-25T16:24:13Z</time>
      </trkpt>
      <trkpt lat="44.34215" lon="2.50373">
        <ele>487</ele>
        <time>2016-05-25T16:24:20Z</time>
      </trkpt>
      <trkpt lat="44.34208" lon="2.50349">
        <ele>486</ele>
        <time>2016-05-25T16:24:27Z</time>
      </trkpt>
      <trkpt lat="44.34203" lon="2.50324">
        <ele>482</ele>
        <time>2016-05-25T16:24:34Z</time>
      </trkpt>
      <trkpt lat="44.34198" lon="2.503">
        <ele>481</ele>
        <time>2016-05-25T16:24:41Z</time>
      </trkpt>
      <trkpt lat="44.34188" lon="2.50275">
        <ele>481</ele>
        <time>2016-05-25T16:24:49Z</time>
      </trkpt>
      <trkpt lat="44.34177" lon="2.50251">
        <ele>481</ele>
        <time>2016-05-25T16:24:56Z</time>
      </trkpt>
      <trkpt lat="44.34167" lon="2.50229">
        <ele>480</ele>
        <time>2016-05-25T16:25:03Z</time>
      </trkpt>
      <trkpt lat="44.34156" lon="2.50207">
        <ele>479</ele>
        <time>2016-05-25T16:25:10Z</time>
      </trkpt>
      <trkpt lat="44.34146" lon="2.50185">
        <ele>478</ele>
        <time>2016-05-25T16:25:17Z</time>
      </trkpt>
      <trkpt lat="44.34135" lon="2.50162">
        <ele>479</ele>
        <time>2016-05-25T16:25:24Z</time>
      </trkpt>
      <trkpt lat="44.34125" lon="2.50139">
        <ele>478</ele>
        <time>2016-05-25T16:25:31Z</time>
      </trkpt>
      <trkpt lat="44.34114" lon="2.50117">
        <ele>479</ele>
        <time>2016-05-25T16:25:38Z</time>
      </trkpt>
      <trkpt lat="44.34104" lon="2.50093">
        <ele>478</ele>
        <time>2016-05-25T16:25:45Z</time>
      </trkpt>
      <trkpt lat="44.34096" lon="2.5007">
        <ele>477</ele>
        <time>2016-05-25T16:25:52Z</time>
      </trkpt>
      <trkpt lat="44.34085" lon="2.50049">
        <ele>478</ele>
        <time>2016-05-25T16:25:59Z</time>
      </trkpt>
      <trkpt lat="44.34075" lon="2.50026">
        <ele>479</ele>
        <time>2016-05-25T16:26:07Z</time>
      </trkpt>
      <trkpt lat="44.34066" lon="2.50002">
        <ele>480</ele>
        <time>2016-05-25T16:26:15Z</time>
      </trkpt>
      <trkpt lat="44.34059" lon="2.49976">
        <ele>480</ele>
        <time>2016-05-25T16:26:23Z</time>
      </trkpt>
      <trkpt lat="44.34051" lon="2.49952">
        <ele>481</ele>
        <time>2016-05-25T16:26:30Z</time>
      </trkpt>
      <trkpt lat="44.34044" lon="2.4993">
        <ele>483</ele>
        <time>2016-05-25T16:26:37Z</time>
      </trkpt>
      <trkpt lat="44.34036" lon="2.49905">
        <ele>484</ele>
        <time>2016-05-25T16:26:45Z</time>
      </trkpt>
      <trkpt lat="44.34031" lon="2.49879">
        <ele>483</ele>
        <time>2016-05-25T16:26:53Z</time>
      </trkpt>
      <trkpt lat="44.34031" lon="2.49853">
        <ele>483</ele>
        <time>2016-05-25T16:27:01Z</time>
      </trkpt>
      <trkpt lat="44.34035" lon="2.49825">
        <ele>484</ele>
        <time>2016-05-25T16:27:09Z</time>
      </trkpt>
      <trkpt lat="44.34036" lon="2.49801">
        <ele>486</ele>
        <time>2016-05-25T16:27:17Z</time>
      </trkpt>
      <trkpt lat="44.34049" lon="2.49805">
        <ele>493</ele>
        <time>2016-05-25T16:27:27Z</time>
      </trkpt>
      <trkpt lat="44.34065" lon="2.49792">
        <ele>499</ele>
        <time>2016-05-25T16:27:37Z</time>
      </trkpt>
      <trkpt lat="44.34083" lon="2.49787">
        <ele>508</ele>
        <time>2016-05-25T16:27:51Z</time>
      </trkpt>
      <trkpt lat="44.34101" lon="2.49783">
        <ele>516</ele>
        <time>2016-05-25T16:28:07Z</time>
      </trkpt>
      <trkpt lat="44.34099" lon="2.4979">
        <ele>518</ele>
        <time>2016-05-25T16:28:13Z</time>
      </trkpt>
      <trkpt lat="44.34084" lon="2.49805">
        <ele>519</ele>
        <time>2016-05-25T16:28:32Z</time>
      </trkpt>
      <trkpt lat="44.34072" lon="2.49826">
        <ele>514</ele>
        <time>2016-05-25T16:28:47Z</time>
      </trkpt>
      <trkpt lat="44.34065" lon="2.4984">
        <ele>511</ele>
        <time>2016-05-25T16:28:55Z</time>
      </trkpt>
      <trkpt lat="44.34064" lon="2.49845">
        <ele>512</ele>
        <time>2016-05-25T16:28:59Z</time>
      </trkpt>
      <trkpt lat="44.34064" lon="2.49862">
        <ele>515</ele>
        <time>2016-05-25T16:29:09Z</time>
      </trkpt>
      <trkpt lat="44.34065" lon="2.49868">
        <ele>517</ele>
        <time>2016-05-25T16:29:12Z</time>
      </trkpt>
      <trkpt lat="44.34074" lon="2.4986">
        <ele>519</ele>
        <time>2016-05-25T16:29:21Z</time>
      </trkpt>
      <trkpt lat="44.34075" lon="2.49859">
        <ele>519</ele>
        <time>2016-05-25T16:29:23Z</time>
      </trkpt>
      <trkpt lat="44.34124" lon="2.49929">
        <ele>541</ele>
        <time>2016-05-25T16:30:59Z</time>
      </trkpt>
      <trkpt lat="44.34128" lon="2.49954">
        <ele>543</ele>
        <time>2016-05-25T16:31:12Z</time>
      </trkpt>
      <trkpt lat="44.34137" lon="2.49978">
        <ele>543</ele>
        <time>2016-05-25T16:31:25Z</time>
      </trkpt>
      <trkpt lat="44.3415" lon="2.49994">
        <ele>547</ele>
        <time>2016-05-25T16:31:40Z</time>
      </trkpt>
      <trkpt lat="44.34164" lon="2.50011">
        <ele>550</ele>
        <time>2016-05-25T16:31:55Z</time>
      </trkpt>
      <trkpt lat="44.34163" lon="2.50012">
        <ele>550</ele>
        <time>2016-05-25T16:31:56Z</time>
      </trkpt>
      <trkpt lat="44.34173" lon="2.50019">
        <ele>551</ele>
        <time>2016-05-25T16:32:06Z</time>
      </trkpt>
      <trkpt lat="44.34187" lon="2.50036">
        <ele>555</ele>
        <time>2016-05-25T16:32:18Z</time>
      </trkpt>
      <trkpt lat="44.34199" lon="2.50037">
        <ele>556</ele>
        <time>2016-05-25T16:32:31Z</time>
      </trkpt>
      <trkpt lat="44.34195" lon="2.5004">
        <ele>554</ele>
        <time>2016-05-25T16:32:35Z</time>
      </trkpt>
      <trkpt lat="44.34195" lon="2.50044">
        <ele>554</ele>
        <time>2016-05-25T16:32:39Z</time>
      </trkpt>
      <trkpt lat="44.34201" lon="2.50055">
        <ele>558</ele>
        <time>2016-05-25T16:32:48Z</time>
      </trkpt>
      <trkpt lat="44.34213" lon="2.50083">
        <ele>566</ele>
        <time>2016-05-25T16:33:10Z</time>
      </trkpt>
      <trkpt lat="44.34221" lon="2.50105">
        <ele>568</ele>
        <time>2016-05-25T16:33:23Z</time>
      </trkpt>
      <trkpt lat="44.34229" lon="2.50128">
        <ele>569</ele>
        <time>2016-05-25T16:33:35Z</time>
      </trkpt>
      <trkpt lat="44.34231" lon="2.5013">
        <ele>568</ele>
        <time>2016-05-25T16:33:37Z</time>
      </trkpt>
      <trkpt lat="44.34237" lon="2.50128">
        <ele>568</ele>
        <time>2016-05-25T16:33:45Z</time>
      </trkpt>
      <trkpt lat="44.34245" lon="2.50127">
        <ele>566</ele>
        <time>2016-05-25T16:33:52Z</time>
      </trkpt>
      <trkpt lat="44.34248" lon="2.50129">
        <ele>565</ele>
        <time>2016-05-25T16:33:55Z</time>
      </trkpt>
      <trkpt lat="44.34254" lon="2.50142">
        <ele>565</ele>
        <time>2016-05-25T16:34:06Z</time>
      </trkpt>
      <trkpt lat="44.34259" lon="2.50152">
        <ele>564</ele>
        <time>2016-05-25T16:34:11Z</time>
      </trkpt>
      <trkpt lat="44.34272" lon="2.5017">
        <ele>566</ele>
        <time>2016-05-25T16:34:21Z</time>
      </trkpt>
      <trkpt lat="44.34289" lon="2.50179">
        <ele>570</ele>
        <time>2016-05-25T16:34:30Z</time>
      </trkpt>
      <trkpt lat="44.34307" lon="2.50181">
        <ele>573</ele>
        <time>2016-05-25T16:34:39Z</time>
      </trkpt>
      <trkpt lat="44.34326" lon="2.50183">
        <ele>576</ele>
        <time>2016-05-25T16:34:48Z</time>
      </trkpt>
      <trkpt lat="44.34346" lon="2.50189">
        <ele>578</ele>
        <time>2016-05-25T16:34:58Z</time>
      </trkpt>
      <trkpt lat="44.34364" lon="2.50194">
        <ele>582</ele>
        <time>2016-05-25T16:35:09Z</time>
      </trkpt>
      <trkpt lat="44.34379" lon="2.50211">
        <ele>578</ele>
        <time>2016-05-25T16:35:16Z</time>
      </trkpt>
      <trkpt lat="44.34391" lon="2.50234">
        <ele>568</ele>
        <time>2016-05-25T16:35:22Z</time>
      </trkpt>
      <trkpt lat="44.344" lon="2.50257">
        <ele>565</ele>
        <time>2016-05-25T16:35:30Z</time>
      </trkpt>
      <trkpt lat="44.34411" lon="2.5028">
        <ele>563</ele>
        <time>2016-05-25T16:35:37Z</time>
      </trkpt>
      <trkpt lat="44.34422" lon="2.503">
        <ele>562</ele>
        <time>2016-05-25T16:35:44Z</time>
      </trkpt>
      <trkpt lat="44.34438" lon="2.50314">
        <ele>563</ele>
        <time>2016-05-25T16:35:51Z</time>
      </trkpt>
      <trkpt lat="44.34454" lon="2.50325">
        <ele>565</ele>
        <time>2016-05-25T16:35:59Z</time>
      </trkpt>
      <trkpt lat="44.34472" lon="2.50335">
        <ele>567</ele>
        <time>2016-05-25T16:36:08Z</time>
      </trkpt>
      <trkpt lat="44.34486" lon="2.50352">
        <ele>562</ele>
        <time>2016-05-25T16:36:14Z</time>
      </trkpt>
      <trkpt lat="44.34495" lon="2.50376">
        <ele>561</ele>
        <time>2016-05-25T16:36:22Z</time>
      </trkpt>
      <trkpt lat="44.34504" lon="2.50398">
        <ele>558</ele>
        <time>2016-05-25T16:36:30Z</time>
      </trkpt>
      <trkpt lat="44.34515" lon="2.50422">
        <ele>559</ele>
        <time>2016-05-25T16:36:39Z</time>
      </trkpt>
      <trkpt lat="44.34529" lon="2.5044">
        <ele>559</ele>
        <time>2016-05-25T16:36:48Z</time>
      </trkpt>
      <trkpt lat="44.34542" lon="2.50459">
        <ele>559</ele>
        <time>2016-05-25T16:36:57Z</time>
      </trkpt>
      <trkpt lat="44.34558" lon="2.50471">
        <ele>562</ele>
        <time>2016-05-25T16:37:07Z</time>
      </trkpt>
      <trkpt lat="44.34572" lon="2.50489">
        <ele>566</ele>
        <time>2016-05-25T16:37:18Z</time>
      </trkpt>
      <trkpt lat="44.3458" lon="2.50512">
        <ele>569</ele>
        <time>2016-05-25T16:37:28Z</time>
      </trkpt>
      <trkpt lat="44.34586" lon="2.50538">
        <ele>569</ele>
        <time>2016-05-25T16:37:36Z</time>
      </trkpt>
      <trkpt lat="44.34591" lon="2.50565">
        <ele>574</ele>
        <time>2016-05-25T16:37:45Z</time>
      </trkpt>
      <trkpt lat="44.34599" lon="2.5059">
        <ele>580</ele>
        <time>2016-05-25T16:37:55Z</time>
      </trkpt>
      <trkpt lat="44.34609" lon="2.50614">
        <ele>583</ele>
        <time>2016-05-25T16:38:05Z</time>
      </trkpt>
      <trkpt lat="44.34619" lon="2.50636">
        <ele>591</ele>
        <time>2016-05-25T16:38:17Z</time>
      </trkpt>
      <trkpt lat="44.34631" lon="2.50655">
        <ele>601</ele>
        <time>2016-05-25T16:38:28Z</time>
      </trkpt>
      <trkpt lat="44.34641" lon="2.50678">
        <ele>601</ele>
        <time>2016-05-25T16:38:40Z</time>
      </trkpt>
      <trkpt lat="44.34653" lon="2.50699">
        <ele>599</ele>
        <time>2016-05-25T16:38:49Z</time>
      </trkpt>
      <trkpt lat="44.34657" lon="2.50726">
        <ele>595</ele>
        <time>2016-05-25T16:38:58Z</time>
      </trkpt>
      <trkpt lat="44.34662" lon="2.50751">
        <ele>593</ele>
        <time>2016-05-25T16:39:08Z</time>
      </trkpt>
      <trkpt lat="44.34671" lon="2.50773">
        <ele>591</ele>
        <time>2016-05-25T16:39:16Z</time>
      </trkpt>
      <trkpt lat="44.34668" lon="2.508">
        <ele>586</ele>
        <time>2016-05-25T16:39:24Z</time>
      </trkpt>
      <trkpt lat="44.34659" lon="2.50814">
        <ele>584</ele>
        <time>2016-05-25T16:39:33Z</time>
      </trkpt>
      <trkpt lat="44.34655" lon="2.50821">
        <ele>583</ele>
        <time>2016-05-25T16:39:39Z</time>
      </trkpt>
      <trkpt lat="44.34649" lon="2.50825">
        <ele>579</ele>
        <time>2016-05-25T16:39:44Z</time>
      </trkpt>
      <trkpt lat="44.34652" lon="2.50826">
        <ele>571</ele>
        <time>2016-05-25T16:40:32Z</time>
      </trkpt>
      <trkpt lat="44.34657" lon="2.50819">
        <ele>571</ele>
        <time>2016-05-25T16:40:37Z</time>
      </trkpt>
      <trkpt lat="44.3467" lon="2.50798">
        <ele>573</ele>
        <time>2016-05-25T16:40:51Z</time>
      </trkpt>
      <trkpt lat="44.34674" lon="2.50786">
        <ele>572</ele>
        <time>2016-05-25T16:40:57Z</time>
      </trkpt>
      <trkpt lat="44.34674" lon="2.50761">
        <ele>572</ele>
        <time>2016-05-25T16:41:08Z</time>
      </trkpt>
      <trkpt lat="44.34677" lon="2.50737">
        <ele>572</ele>
        <time>2016-05-25T16:41:17Z</time>
      </trkpt>
      <trkpt lat="44.34676" lon="2.50712">
        <ele>567</ele>
        <time>2016-05-25T16:41:27Z</time>
      </trkpt>
      <trkpt lat="44.34672" lon="2.50688">
        <ele>562</ele>
        <time>2016-05-25T16:41:41Z</time>
      </trkpt>
      <trkpt lat="44.34668" lon="2.50662">
        <ele>562</ele>
        <time>2016-05-25T16:41:54Z</time>
      </trkpt>
      <trkpt lat="44.34669" lon="2.50654">
        <ele>561</ele>
        <time>2016-05-25T16:41:57Z</time>
      </trkpt>
      <trkpt lat="44.34674" lon="2.50649">
        <ele>557</ele>
        <time>2016-05-25T16:42:02Z</time>
      </trkpt>
      <trkpt lat="44.34687" lon="2.50646">
        <ele>551</ele>
        <time>2016-05-25T16:42:14Z</time>
      </trkpt>
      <trkpt lat="44.347" lon="2.50665">
        <ele>541</ele>
        <time>2016-05-25T16:42:24Z</time>
      </trkpt>
      <trkpt lat="44.34707" lon="2.50692">
        <ele>535</ele>
        <time>2016-05-25T16:42:32Z</time>
      </trkpt>
      <trkpt lat="44.34714" lon="2.50717">
        <ele>539</ele>
        <time>2016-05-25T16:42:41Z</time>
      </trkpt>
      <trkpt lat="44.3472" lon="2.50741">
        <ele>548</ele>
        <time>2016-05-25T16:42:50Z</time>
      </trkpt>
      <trkpt lat="44.34728" lon="2.50763">
        <ele>568</ele>
        <time>2016-05-25T16:43:04Z</time>
      </trkpt>
      <trkpt lat="44.34744" lon="2.50776">
        <ele>580</ele>
        <time>2016-05-25T16:43:19Z</time>
      </trkpt>
      <trkpt lat="44.3476" lon="2.50795">
        <ele>577</ele>
        <time>2016-05-25T16:43:31Z</time>
      </trkpt>
      <trkpt lat="44.34776" lon="2.50811">
        <ele>572</ele>
        <time>2016-05-25T16:43:43Z</time>
      </trkpt>
      <trkpt lat="44.3479" lon="2.50829">
        <ele>568</ele>
        <time>2016-05-25T16:43:57Z</time>
      </trkpt>
      <trkpt lat="44.348" lon="2.50851">
        <ele>569</ele>
        <time>2016-05-25T16:44:05Z</time>
      </trkpt>
      <trkpt lat="44.34807" lon="2.50875">
        <ele>567</ele>
        <time>2016-05-25T16:44:14Z</time>
      </trkpt>
      <trkpt lat="44.34812" lon="2.50901">
        <ele>568</ele>
        <time>2016-05-25T16:44:24Z</time>
      </trkpt>
      <trkpt lat="44.34818" lon="2.50928">
        <ele>558</ele>
        <time>2016-05-25T16:44:33Z</time>
      </trkpt>
      <trkpt lat="44.34824" lon="2.50952">
        <ele>557</ele>
        <time>2016-05-25T16:44:41Z</time>
      </trkpt>
      <trkpt lat="44.34831" lon="2.50977">
        <ele>567</ele>
        <time>2016-05-25T16:44:49Z</time>
      </trkpt>
      <trkpt lat="44.34846" lon="2.50996">
        <ele>575</ele>
        <time>2016-05-25T16:44:57Z</time>
      </trkpt>
      <trkpt lat="44.34858" lon="2.51015">
        <ele>580</ele>
        <time>2016-05-25T16:45:05Z</time>
      </trkpt>
      <trkpt lat="44.34873" lon="2.5103">
        <ele>580</ele>
        <time>2016-05-25T16:45:13Z</time>
      </trkpt>
      <trkpt lat="44.34889" lon="2.51043">
        <ele>586</ele>
        <time>2016-05-25T16:45:21Z</time>
      </trkpt>
      <trkpt lat="44.34892" lon="2.51053">
        <ele>578</ele>
        <time>2016-05-25T16:45:33Z</time>
      </trkpt>
      <trkpt lat="44.34893" lon="2.51054">
        <ele>575</ele>
        <time>2016-05-25T16:45:36Z</time>
      </trkpt>
      <trkpt lat="44.349" lon="2.51057">
        <ele>576</ele>
        <time>2016-05-25T16:45:40Z</time>
      </trkpt>
      <trkpt lat="44.34917" lon="2.51067">
        <ele>574</ele>
        <time>2016-05-25T16:45:50Z</time>
      </trkpt>
      <trkpt lat="44.34933" lon="2.51082">
        <ele>576</ele>
        <time>2016-05-25T16:45:58Z</time>
      </trkpt>
      <trkpt lat="44.34951" lon="2.51095">
        <ele>578</ele>
        <time>2016-05-25T16:46:05Z</time>
      </trkpt>
      <trkpt lat="44.34965" lon="2.51114">
        <ele>576</ele>
        <time>2016-05-25T16:46:12Z</time>
      </trkpt>
      <trkpt lat="44.34981" lon="2.51134">
        <ele>566</ele>
        <time>2016-05-25T16:46:18Z</time>
      </trkpt>
      <trkpt lat="44.34995" lon="2.51156">
        <ele>559</ele>
        <time>2016-05-25T16:46:24Z</time>
      </trkpt>
      <trkpt lat="44.35011" lon="2.51166">
        <ele>561</ele>
        <time>2016-05-25T16:46:33Z</time>
      </trkpt>
      <trkpt lat="44.35028" lon="2.51172">
        <ele>568</ele>
        <time>2016-05-25T16:46:46Z</time>
      </trkpt>
      <trkpt lat="44.35033" lon="2.51184">
        <ele>570</ele>
        <time>2016-05-25T16:47:00Z</time>
      </trkpt>
      <trkpt lat="44.3505" lon="2.51185">
        <ele>570</ele>
        <time>2016-05-25T16:47:10Z</time>
      </trkpt>
      <trkpt lat="44.35057" lon="2.51188">
        <ele>567</ele>
        <time>2016-05-25T16:47:15Z</time>
      </trkpt>
      <trkpt lat="44.35072" lon="2.51202">
        <ele>564</ele>
        <time>2016-05-25T16:47:22Z</time>
      </trkpt>
      <trkpt lat="44.35084" lon="2.51223">
        <ele>560</ele>
        <time>2016-05-25T16:47:31Z</time>
      </trkpt>
      <trkpt lat="44.3509" lon="2.51245">
        <ele>565</ele>
        <time>2016-05-25T16:47:39Z</time>
      </trkpt>
      <trkpt lat="44.35111" lon="2.51276">
        <ele>569</ele>
        <time>2016-05-25T16:48:20Z</time>
      </trkpt>
      <trkpt lat="44.35115" lon="2.51284">
        <ele>572</ele>
        <time>2016-05-25T16:48:26Z</time>
      </trkpt>
      <trkpt lat="44.35121" lon="2.51291">
        <ele>569</ele>
        <time>2016-05-25T16:48:43Z</time>
      </trkpt>
      <trkpt lat="44.35127" lon="2.51314">
        <ele>570</ele>
        <time>2016-05-25T16:48:55Z</time>
      </trkpt>
      <trkpt lat="44.35138" lon="2.51335">
        <ele>574</ele>
        <time>2016-05-25T16:49:11Z</time>
      </trkpt>
      <trkpt lat="44.3515" lon="2.51355">
        <ele>574</ele>
        <time>2016-05-25T16:49:24Z</time>
      </trkpt>
      <trkpt lat="44.35165" lon="2.51373">
        <ele>578</ele>
        <time>2016-05-25T16:49:36Z</time>
      </trkpt>
      <trkpt lat="44.3518" lon="2.5139">
        <ele>581</ele>
        <time>2016-05-25T16:49:47Z</time>
      </trkpt>
      <trkpt lat="44.35192" lon="2.5141">
        <ele>580</ele>
        <time>2016-05-25T16:49:57Z</time>
      </trkpt>
      <trkpt lat="44.35203" lon="2.51432">
        <ele>569</ele>
        <time>2016-05-25T16:50:04Z</time>
      </trkpt>
      <trkpt lat="44.35205" lon="2.51458">
        <ele>564</ele>
        <time>2016-05-25T16:50:12Z</time>
      </trkpt>
      <trkpt lat="44.352" lon="2.51483">
        <ele>566</ele>
        <time>2016-05-25T16:50:22Z</time>
      </trkpt>
      <trkpt lat="44.35187" lon="2.51505">
        <ele>562</ele>
        <time>2016-05-25T16:50:32Z</time>
      </trkpt>
      <trkpt lat="44.3517" lon="2.51515">
        <ele>561</ele>
        <time>2016-05-25T16:50:43Z</time>
      </trkpt>
      <trkpt lat="44.35154" lon="2.51527">
        <ele>565</ele>
        <time>2016-05-25T16:50:54Z</time>
      </trkpt>
      <trkpt lat="44.35138" lon="2.51542">
        <ele>568</ele>
        <time>2016-05-25T16:51:05Z</time>
      </trkpt>
      <trkpt lat="44.35124" lon="2.51558">
        <ele>571</ele>
        <time>2016-05-25T16:51:14Z</time>
      </trkpt>
      <trkpt lat="44.35107" lon="2.51573">
        <ele>575</ele>
        <time>2016-05-25T16:51:24Z</time>
      </trkpt>
      <trkpt lat="44.35098" lon="2.51574">
        <ele>574</ele>
        <time>2016-05-25T16:51:28Z</time>
      </trkpt>
      <trkpt lat="44.35088" lon="2.51571">
        <ele>574</ele>
        <time>2016-05-25T16:51:33Z</time>
      </trkpt>
      <trkpt lat="44.3507" lon="2.51564">
        <ele>574</ele>
        <time>2016-05-25T16:51:42Z</time>
      </trkpt>
      <trkpt lat="44.35052" lon="2.51562">
        <ele>576</ele>
        <time>2016-05-25T16:51:51Z</time>
      </trkpt>
      <trkpt lat="44.35037" lon="2.51578">
        <ele>578</ele>
        <time>2016-05-25T16:52:01Z</time>
      </trkpt>
      <trkpt lat="44.35026" lon="2.51601">
        <ele>581</ele>
        <time>2016-05-25T16:52:11Z</time>
      </trkpt>
      <trkpt lat="44.35015" lon="2.51623">
        <ele>585</ele>
        <time>2016-05-25T16:52:23Z</time>
      </trkpt>
      <trkpt lat="44.34998" lon="2.51632">
        <ele>587</ele>
        <time>2016-05-25T16:52:33Z</time>
      </trkpt>
      <trkpt lat="44.3498" lon="2.5164">
        <ele>586</ele>
        <time>2016-05-25T16:52:42Z</time>
      </trkpt>
      <trkpt lat="44.34961" lon="2.51648">
        <ele>586</ele>
        <time>2016-05-25T16:52:52Z</time>
      </trkpt>
      <trkpt lat="44.34941" lon="2.5165">
        <ele>586</ele>
        <time>2016-05-25T16:53:02Z</time>
      </trkpt>
      <trkpt lat="44.34923" lon="2.5165">
        <ele>586</ele>
        <time>2016-05-25T16:53:12Z</time>
      </trkpt>
      <trkpt lat="44.34904" lon="2.51648">
        <ele>586</ele>
        <time>2016-05-25T16:53:22Z</time>
      </trkpt>
      <trkpt lat="44.34884" lon="2.51646">
        <ele>587</ele>
        <time>2016-05-25T16:53:32Z</time>
      </trkpt>
      <trkpt lat="44.34865" lon="2.51645">
        <ele>587</ele>
        <time>2016-05-25T16:53:42Z</time>
      </trkpt>
      <trkpt lat="44.34846" lon="2.51645">
        <ele>588</ele>
        <time>2016-05-25T16:53:52Z</time>
      </trkpt>
      <trkpt lat="44.34827" lon="2.51643">
        <ele>590</ele>
        <time>2016-05-25T16:54:03Z</time>
      </trkpt>
      <trkpt lat="44.34809" lon="2.5164">
        <ele>591</ele>
        <time>2016-05-25T16:54:13Z</time>
      </trkpt>
      <trkpt lat="44.34789" lon="2.51638">
        <ele>592</ele>
        <time>2016-05-25T16:54:23Z</time>
      </trkpt>
      <trkpt lat="44.34769" lon="2.51637">
        <ele>594</ele>
        <time>2016-05-25T16:54:32Z</time>
      </trkpt>
      <trkpt lat="44.3475" lon="2.51634">
        <ele>596</ele>
        <time>2016-05-25T16:54:41Z</time>
      </trkpt>
      <trkpt lat="44.3473" lon="2.51631">
        <ele>596</ele>
        <time>2016-05-25T16:54:50Z</time>
      </trkpt>
      <trkpt lat="44.34711" lon="2.51628">
        <ele>597</ele>
        <time>2016-05-25T16:54:58Z</time>
      </trkpt>
      <trkpt lat="44.34692" lon="2.51625">
        <ele>597</ele>
        <time>2016-05-25T16:55:08Z</time>
      </trkpt>
      <trkpt lat="44.34674" lon="2.51624">
        <ele>599</ele>
        <time>2016-05-25T16:55:17Z</time>
      </trkpt>
      <trkpt lat="44.34655" lon="2.51627">
        <ele>601</ele>
        <time>2016-05-25T16:55:25Z</time>
      </trkpt>
      <trkpt lat="44.34637" lon="2.51632">
        <ele>602</ele>
        <time>2016-05-25T16:55:33Z</time>
      </trkpt>
      <trkpt lat="44.34618" lon="2.51642">
        <ele>601</ele>
        <time>2016-05-25T16:55:42Z</time>
      </trkpt>
      <trkpt lat="44.34601" lon="2.51652">
        <ele>602</ele>
        <time>2016-05-25T16:55:50Z</time>
      </trkpt>
      <trkpt lat="44.34583" lon="2.51662">
        <ele>602</ele>
        <time>2016-05-25T16:55:58Z</time>
      </trkpt>
      <trkpt lat="44.34564" lon="2.51665">
        <ele>600</ele>
        <time>2016-05-25T16:56:06Z</time>
      </trkpt>
      <trkpt lat="44.34546" lon="2.51664">
        <ele>602</ele>
        <time>2016-05-25T16:56:14Z</time>
      </trkpt>
      <trkpt lat="44.34533" lon="2.51682">
        <ele>603</ele>
        <time>2016-05-25T16:56:22Z</time>
      </trkpt>
      <trkpt lat="44.34521" lon="2.51701">
        <ele>606</ele>
        <time>2016-05-25T16:56:30Z</time>
      </trkpt>
      <trkpt lat="44.34508" lon="2.51722">
        <ele>605</ele>
        <time>2016-05-25T16:56:39Z</time>
      </trkpt>
      <trkpt lat="44.34496" lon="2.51743">
        <ele>605</ele>
        <time>2016-05-25T16:56:47Z</time>
      </trkpt>
      <trkpt lat="44.34483" lon="2.51763">
        <ele>605</ele>
        <time>2016-05-25T16:56:55Z</time>
      </trkpt>
      <trkpt lat="44.3447" lon="2.51782">
        <ele>605</ele>
        <time>2016-05-25T16:57:03Z</time>
      </trkpt>
      <trkpt lat="44.34456" lon="2.51799">
        <ele>605</ele>
        <time>2016-05-25T16:57:11Z</time>
      </trkpt>
      <trkpt lat="44.3444" lon="2.51815">
        <ele>605</ele>
        <time>2016-05-25T16:57:20Z</time>
      </trkpt>
      <trkpt lat="44.34424" lon="2.51828">
        <ele>608</ele>
        <time>2016-05-25T16:57:30Z</time>
      </trkpt>
      <trkpt lat="44.34416" lon="2.51853">
        <ele>610</ele>
        <time>2016-05-25T16:57:39Z</time>
      </trkpt>
      <trkpt lat="44.34413" lon="2.51878">
        <ele>612</ele>
        <time>2016-05-25T16:57:48Z</time>
      </trkpt>
      <trkpt lat="44.34413" lon="2.51881">
        <ele>612</ele>
        <time>2016-05-25T16:57:49Z</time>
      </trkpt>
      <trkpt lat="44.34421" lon="2.51906">
        <ele>612</ele>
        <time>2016-05-25T16:57:58Z</time>
      </trkpt>
      <trkpt lat="44.34426" lon="2.51933">
        <ele>610</ele>
        <time>2016-05-25T16:58:06Z</time>
      </trkpt>
      <trkpt lat="44.3443" lon="2.51959">
        <ele>610</ele>
        <time>2016-05-25T16:58:15Z</time>
      </trkpt>
      <trkpt lat="44.34435" lon="2.51985">
        <ele>610</ele>
        <time>2016-05-25T16:58:24Z</time>
      </trkpt>
      <trkpt lat="44.34438" lon="2.52012">
        <ele>611</ele>
        <time>2016-05-25T16:58:32Z</time>
      </trkpt>
      <trkpt lat="44.34437" lon="2.52037">
        <ele>609</ele>
        <time>2016-05-25T16:58:40Z</time>
      </trkpt>
      <trkpt lat="44.34418" lon="2.52045">
        <ele>610</ele>
        <time>2016-05-25T16:58:49Z</time>
      </trkpt>
      <trkpt lat="44.34416" lon="2.52049">
        <ele>611</ele>
        <time>2016-05-25T16:58:51Z</time>
      </trkpt>
      <trkpt lat="44.34415" lon="2.52061">
        <ele>612</ele>
        <time>2016-05-25T16:58:55Z</time>
      </trkpt>
      <trkpt lat="44.34416" lon="2.5209">
        <ele>613</ele>
        <time>2016-05-25T16:59:04Z</time>
      </trkpt>
      <trkpt lat="44.34418" lon="2.52115">
        <ele>613</ele>
        <time>2016-05-25T16:59:12Z</time>
      </trkpt>
      <trkpt lat="44.3442" lon="2.52142">
        <ele>611</ele>
        <time>2016-05-25T16:59:20Z</time>
      </trkpt>
      <trkpt lat="44.34424" lon="2.5217">
        <ele>608</ele>
        <time>2016-05-25T16:59:28Z</time>
      </trkpt>
      <trkpt lat="44.34426" lon="2.52195">
        <ele>607</ele>
        <time>2016-05-25T16:59:36Z</time>
      </trkpt>
      <trkpt lat="44.34427" lon="2.52221">
        <ele>607</ele>
        <time>2016-05-25T16:59:44Z</time>
      </trkpt>
      <trkpt lat="44.34428" lon="2.52248">
        <ele>607</ele>
        <time>2016-05-25T16:59:52Z</time>
      </trkpt>
      <trkpt lat="44.34428" lon="2.52276">
        <ele>606</ele>
        <time>2016-05-25T17:00:00Z</time>
      </trkpt>
      <trkpt lat="44.34425" lon="2.52301">
        <ele>606</ele>
        <time>2016-05-25T17:00:07Z</time>
      </trkpt>
      <trkpt lat="44.34422" lon="2.52328">
        <ele>605</ele>
        <time>2016-05-25T17:00:15Z</time>
      </trkpt>
      <trkpt lat="44.34421" lon="2.52354">
        <ele>604</ele>
        <time>2016-05-25T17:00:23Z</time>
      </trkpt>
      <trkpt lat="44.3442" lon="2.52381">
        <ele>603</ele>
        <time>2016-05-25T17:00:31Z</time>
      </trkpt>
      <trkpt lat="44.34419" lon="2.52408">
        <ele>601</ele>
        <time>2016-05-25T17:00:39Z</time>
      </trkpt>
      <trkpt lat="44.34416" lon="2.52434">
        <ele>601</ele>
        <time>2016-05-25T17:00:47Z</time>
      </trkpt>
      <trkpt lat="44.34411" lon="2.52459">
        <ele>602</ele>
        <time>2016-05-25T17:00:55Z</time>
      </trkpt>
      <trkpt lat="44.34404" lon="2.52483">
        <ele>602</ele>
        <time>2016-05-25T17:01:03Z</time>
      </trkpt>
      <trkpt lat="44.34395" lon="2.52506">
        <ele>601</ele>
        <time>2016-05-25T17:01:11Z</time>
      </trkpt>
      <trkpt lat="44.34383" lon="2.52528">
        <ele>601</ele>
        <time>2016-05-25T17:01:20Z</time>
      </trkpt>
      <trkpt lat="44.34371" lon="2.5255">
        <ele>600</ele>
        <time>2016-05-25T17:01:29Z</time>
      </trkpt>
      <trkpt lat="44.34361" lon="2.52571">
        <ele>601</ele>
        <time>2016-05-25T17:01:37Z</time>
      </trkpt>
      <trkpt lat="44.34352" lon="2.52596">
        <ele>602</ele>
        <time>2016-05-25T17:01:46Z</time>
      </trkpt>
      <trkpt lat="44.34347" lon="2.52622">
        <ele>606</ele>
        <time>2016-05-25T17:01:56Z</time>
      </trkpt>
      <trkpt lat="44.34344" lon="2.5265">
        <ele>607</ele>
        <time>2016-05-25T17:02:05Z</time>
      </trkpt>
      <trkpt lat="44.34341" lon="2.52675">
        <ele>608</ele>
        <time>2016-05-25T17:02:14Z</time>
      </trkpt>
      <trkpt lat="44.34339" lon="2.52702">
        <ele>610</ele>
        <time>2016-05-25T17:02:23Z</time>
      </trkpt>
      <trkpt lat="44.34335" lon="2.52727">
        <ele>609</ele>
        <time>2016-05-25T17:02:31Z</time>
      </trkpt>
      <trkpt lat="44.34327" lon="2.52751">
        <ele>608</ele>
        <time>2016-05-25T17:02:39Z</time>
      </trkpt>
      <trkpt lat="44.3432" lon="2.52775">
        <ele>607</ele>
        <time>2016-05-25T17:02:47Z</time>
      </trkpt>
      <trkpt lat="44.34313" lon="2.52799">
        <ele>609</ele>
        <time>2016-05-25T17:02:55Z</time>
      </trkpt>
      <trkpt lat="44.34305" lon="2.52822">
        <ele>609</ele>
        <time>2016-05-25T17:03:03Z</time>
      </trkpt>
      <trkpt lat="44.3429" lon="2.52837">
        <ele>608</ele>
        <time>2016-05-25T17:03:11Z</time>
      </trkpt>
      <trkpt lat="44.34272" lon="2.52851">
        <ele>606</ele>
        <time>2016-05-25T17:03:19Z</time>
      </trkpt>
      <trkpt lat="44.34259" lon="2.52868">
        <ele>605</ele>
        <time>2016-05-25T17:03:27Z</time>
      </trkpt>
      <trkpt lat="44.34245" lon="2.52887">
        <ele>605</ele>
        <time>2016-05-25T17:03:35Z</time>
      </trkpt>
      <trkpt lat="44.34233" lon="2.52907">
        <ele>608</ele>
        <time>2016-05-25T17:03:44Z</time>
      </trkpt>
      <trkpt lat="44.34219" lon="2.52927">
        <ele>607</ele>
        <time>2016-05-25T17:03:53Z</time>
      </trkpt>
      <trkpt lat="44.34207" lon="2.52945">
        <ele>608</ele>
        <time>2016-05-25T17:04:01Z</time>
      </trkpt>
      <trkpt lat="44.34195" lon="2.52967">
        <ele>607</ele>
        <time>2016-05-25T17:04:09Z</time>
      </trkpt>
      <trkpt lat="44.34188" lon="2.52991">
        <ele>605</ele>
        <time>2016-05-25T17:04:16Z</time>
      </trkpt>
      <trkpt lat="44.34186" lon="2.53017">
        <ele>606</ele>
        <time>2016-05-25T17:04:24Z</time>
      </trkpt>
      <trkpt lat="44.34182" lon="2.53044">
        <ele>605</ele>
        <time>2016-05-25T17:04:32Z</time>
      </trkpt>
      <trkpt lat="44.34179" lon="2.53071">
        <ele>609</ele>
        <time>2016-05-25T17:04:40Z</time>
      </trkpt>
      <trkpt lat="44.34178" lon="2.53097">
        <ele>610</ele>
        <time>2016-05-25T17:04:47Z</time>
      </trkpt>
      <trkpt lat="44.34178" lon="2.53123">
        <ele>613</ele>
        <time>2016-05-25T17:04:56Z</time>
      </trkpt>
      <trkpt lat="44.34187" lon="2.53146">
        <ele>613</ele>
        <time>2016-05-25T17:05:05Z</time>
      </trkpt>
      <trkpt lat="44.34196" lon="2.53169">
        <ele>612</ele>
        <time>2016-05-25T17:05:13Z</time>
      </trkpt>
      <trkpt lat="44.34209" lon="2.53187">
        <ele>611</ele>
        <time>2016-05-25T17:05:21Z</time>
      </trkpt>
      <trkpt lat="44.34223" lon="2.53204">
        <ele>614</ele>
        <time>2016-05-25T17:05:29Z</time>
      </trkpt>
      <trkpt lat="44.34238" lon="2.53219">
        <ele>611</ele>
        <time>2016-05-25T17:05:39Z</time>
      </trkpt>
      <trkpt lat="44.3425" lon="2.53239">
        <ele>618</ele>
        <time>2016-05-25T17:05:48Z</time>
      </trkpt>
      <trkpt lat="44.34262" lon="2.5326">
        <ele>625</ele>
        <time>2016-05-25T17:05:56Z</time>
      </trkpt>
      <trkpt lat="44.34277" lon="2.53278">
        <ele>626</ele>
        <time>2016-05-25T17:06:04Z</time>
      </trkpt>
      <trkpt lat="44.3429" lon="2.53298">
        <ele>617</ele>
        <time>2016-05-25T17:06:10Z</time>
      </trkpt>
      <trkpt lat="44.34295" lon="2.53324">
        <ele>608</ele>
        <time>2016-05-25T17:06:16Z</time>
      </trkpt>
      <trkpt lat="44.34291" lon="2.53352">
        <ele>604</ele>
        <time>2016-05-25T17:06:24Z</time>
      </trkpt>
      <trkpt lat="44.34286" lon="2.53378">
        <ele>600</ele>
        <time>2016-05-25T17:06:32Z</time>
      </trkpt>
      <trkpt lat="44.34283" lon="2.53405">
        <ele>598</ele>
        <time>2016-05-25T17:06:40Z</time>
      </trkpt>
      <trkpt lat="44.34279" lon="2.5343">
        <ele>596</ele>
        <time>2016-05-25T17:06:47Z</time>
      </trkpt>
      <trkpt lat="44.34278" lon="2.53457">
        <ele>594</ele>
        <time>2016-05-25T17:06:55Z</time>
      </trkpt>
      <trkpt lat="44.3428" lon="2.53482">
        <ele>591</ele>
        <time>2016-05-25T17:07:02Z</time>
      </trkpt>
      <trkpt lat="44.34286" lon="2.53509">
        <ele>589</ele>
        <time>2016-05-25T17:07:10Z</time>
      </trkpt>
      <trkpt lat="44.34285" lon="2.53534">
        <ele>586</ele>
        <time>2016-05-25T17:07:19Z</time>
      </trkpt>
      <trkpt lat="44.34281" lon="2.53562">
        <ele>584</ele>
        <time>2016-05-25T17:07:28Z</time>
      </trkpt>
      <trkpt lat="44.34279" lon="2.53587">
        <ele>583</ele>
        <time>2016-05-25T17:07:37Z</time>
      </trkpt>
      <trkpt lat="44.34274" lon="2.53613">
        <ele>580</ele>
        <time>2016-05-25T17:07:48Z</time>
      </trkpt>
      <trkpt lat="44.34267" lon="2.53638">
        <ele>577</ele>
        <time>2016-05-25T17:07:58Z</time>
      </trkpt>
      <trkpt lat="44.34265" lon="2.53664">
        <ele>574</ele>
        <time>2016-05-25T17:08:10Z</time>
      </trkpt>
      <trkpt lat="44.34278" lon="2.53681">
        <ele>568</ele>
        <time>2016-05-25T17:08:21Z</time>
      </trkpt>
      <trkpt lat="44.34297" lon="2.53686">
        <ele>565</ele>
        <time>2016-05-25T17:08:30Z</time>
      </trkpt>
      <trkpt lat="44.34315" lon="2.53686">
        <ele>561</ele>
        <time>2016-05-25T17:08:38Z</time>
      </trkpt>
      <trkpt lat="44.34332" lon="2.53676">
        <ele>559</ele>
        <time>2016-05-25T17:08:46Z</time>
      </trkpt>
      <trkpt lat="44.34347" lon="2.53659">
        <ele>557</ele>
        <time>2016-05-25T17:08:55Z</time>
      </trkpt>
      <trkpt lat="44.34352" lon="2.53653">
        <ele>557</ele>
        <time>2016-05-25T17:08:59Z</time>
      </trkpt>
      <trkpt lat="44.34356" lon="2.53667">
        <ele>558</ele>
        <time>2016-05-25T17:09:08Z</time>
      </trkpt>
      <trkpt lat="44.34353" lon="2.53685">
        <ele>554</ele>
        <time>2016-05-25T17:09:19Z</time>
      </trkpt>
      <trkpt lat="44.3435" lon="2.53696">
        <ele>554</ele>
        <time>2016-05-25T17:09:57Z</time>
      </trkpt>
      <trkpt lat="44.3435" lon="2.53709">
        <ele>554</ele>
        <time>2016-05-25T17:10:03Z</time>
      </trkpt>
      <trkpt lat="44.34357" lon="2.53719">
        <ele>554</ele>
        <time>2016-05-25T17:10:10Z</time>
      </trkpt>
      <trkpt lat="44.34364" lon="2.53744">
        <ele>550</ele>
        <time>2016-05-25T17:10:22Z</time>
      </trkpt>
      <trkpt lat="44.34376" lon="2.5376">
        <ele>544</ele>
        <time>2016-05-25T17:10:35Z</time>
      </trkpt>
      <trkpt lat="44.34391" lon="2.53772">
        <ele>539</ele>
        <time>2016-05-25T17:10:52Z</time>
      </trkpt>
      <trkpt lat="44.34393" lon="2.53781">
        <ele>536</ele>
        <time>2016-05-25T17:10:57Z</time>
      </trkpt>
      <trkpt lat="44.3441" lon="2.53785">
        <ele>533</ele>
        <time>2016-05-25T17:11:10Z</time>
      </trkpt>
      <trkpt lat="44.34415" lon="2.53783">
        <ele>532</ele>
        <time>2016-05-25T17:11:14Z</time>
      </trkpt>
      <trkpt lat="44.34433" lon="2.5378">
        <ele>530</ele>
        <time>2016-05-25T17:11:28Z</time>
      </trkpt>
      <trkpt lat="44.34441" lon="2.53782">
        <ele>531</ele>
        <time>2016-05-25T17:11:32Z</time>
      </trkpt>
      <trkpt lat="44.34444" lon="2.53797">
        <ele>535</ele>
        <time>2016-05-25T17:11:38Z</time>
      </trkpt>
      <trkpt lat="44.34443" lon="2.53823">
        <ele>536</ele>
        <time>2016-05-25T17:11:48Z</time>
      </trkpt>
      <trkpt lat="44.34443" lon="2.53823">
        <ele>536</ele>
        <time>2016-05-25T17:11:49Z</time>
      </trkpt>
      <trkpt lat="44.34441" lon="2.53829">
        <ele>536</ele>
        <time>2016-05-25T17:11:52Z</time>
      </trkpt>
      <trkpt lat="44.34441" lon="2.53832">
        <ele>536</ele>
        <time>2016-05-25T17:11:53Z</time>
      </trkpt>
      <trkpt lat="44.34437" lon="2.53859">
        <ele>537</ele>
        <time>2016-05-25T17:12:02Z</time>
      </trkpt>
      <trkpt lat="44.34431" lon="2.53884">
        <ele>532</ele>
        <time>2016-05-25T17:12:10Z</time>
      </trkpt>
      <trkpt lat="44.34424" lon="2.53907">
        <ele>527</ele>
        <time>2016-05-25T17:12:17Z</time>
      </trkpt>
      <trkpt lat="44.34412" lon="2.53929">
        <ele>524</ele>
        <time>2016-05-25T17:12:25Z</time>
      </trkpt>
      <trkpt lat="44.344" lon="2.53948">
        <ele>524</ele>
        <time>2016-05-25T17:12:33Z</time>
      </trkpt>
      <trkpt lat="44.34386" lon="2.53965">
        <ele>527</ele>
        <time>2016-05-25T17:12:41Z</time>
      </trkpt>
      <trkpt lat="44.34383" lon="2.5397">
        <ele>527</ele>
        <time>2016-05-25T17:12:43Z</time>
      </trkpt>
      <trkpt lat="44.34378" lon="2.53984">
        <ele>529</ele>
        <time>2016-05-25T17:12:48Z</time>
      </trkpt>
      <trkpt lat="44.34382" lon="2.5401">
        <ele>528</ele>
        <time>2016-05-25T17:12:58Z</time>
      </trkpt>
      <trkpt lat="44.34397" lon="2.54027">
        <ele>527</ele>
        <time>2016-05-25T17:13:10Z</time>
      </trkpt>
      <trkpt lat="44.34415" lon="2.54036">
        <ele>529</ele>
        <time>2016-05-25T17:13:20Z</time>
      </trkpt>
      <trkpt lat="44.34432" lon="2.54049">
        <ele>527</ele>
        <time>2016-05-25T17:13:29Z</time>
      </trkpt>
      <trkpt lat="44.34448" lon="2.54063">
        <ele>526</ele>
        <time>2016-05-25T17:13:37Z</time>
      </trkpt>
      <trkpt lat="44.34463" lon="2.54081">
        <ele>520</ele>
        <time>2016-05-25T17:13:45Z</time>
      </trkpt>
      <trkpt lat="44.34478" lon="2.54099">
        <ele>516</ele>
        <time>2016-05-25T17:13:53Z</time>
      </trkpt>
      <trkpt lat="44.34493" lon="2.54117">
        <ele>513</ele>
        <time>2016-05-25T17:14:01Z</time>
      </trkpt>
      <trkpt lat="44.34508" lon="2.54132">
        <ele>511</ele>
        <time>2016-05-25T17:14:08Z</time>
      </trkpt>
      <trkpt lat="44.34523" lon="2.54145">
        <ele>509</ele>
        <time>2016-05-25T17:14:16Z</time>
      </trkpt>
      <trkpt lat="44.34538" lon="2.54163">
        <ele>508</ele>
        <time>2016-05-25T17:14:25Z</time>
      </trkpt>
      <trkpt lat="44.34552" lon="2.5418">
        <ele>507</ele>
        <time>2016-05-25T17:14:34Z</time>
      </trkpt>
      <trkpt lat="44.34567" lon="2.54199">
        <ele>505</ele>
        <time>2016-05-25T17:14:44Z</time>
      </trkpt>
      <trkpt lat="44.3458" lon="2.54217">
        <ele>506</ele>
        <time>2016-05-25T17:14:53Z</time>
      </trkpt>
      <trkpt lat="44.34594" lon="2.54235">
        <ele>508</ele>
        <time>2016-05-25T17:15:02Z</time>
      </trkpt>
      <trkpt lat="44.34607" lon="2.54253">
        <ele>508</ele>
        <time>2016-05-25T17:15:10Z</time>
      </trkpt>
      <trkpt lat="44.34622" lon="2.54268">
        <ele>509</ele>
        <time>2016-05-25T17:15:18Z</time>
      </trkpt>
      <trkpt lat="44.3464" lon="2.54283">
        <ele>511</ele>
        <time>2016-05-25T17:15:27Z</time>
      </trkpt>
      <trkpt lat="44.34656" lon="2.54295">
        <ele>511</ele>
        <time>2016-05-25T17:15:35Z</time>
      </trkpt>
      <trkpt lat="44.34673" lon="2.54308">
        <ele>512</ele>
        <time>2016-05-25T17:15:44Z</time>
      </trkpt>
      <trkpt lat="44.34689" lon="2.54323">
        <ele>515</ele>
        <time>2016-05-25T17:15:53Z</time>
      </trkpt>
      <trkpt lat="44.34705" lon="2.54337">
        <ele>517</ele>
        <time>2016-05-25T17:16:02Z</time>
      </trkpt>
      <trkpt lat="44.34722" lon="2.54348">
        <ele>517</ele>
        <time>2016-05-25T17:16:10Z</time>
      </trkpt>
      <trkpt lat="44.34739" lon="2.54355">
        <ele>516</ele>
        <time>2016-05-25T17:16:18Z</time>
      </trkpt>
      <trkpt lat="44.34756" lon="2.54365">
        <ele>517</ele>
        <time>2016-05-25T17:16:26Z</time>
      </trkpt>
      <trkpt lat="44.34775" lon="2.54374">
        <ele>517</ele>
        <time>2016-05-25T17:16:35Z</time>
      </trkpt>
      <trkpt lat="44.34793" lon="2.54382">
        <ele>518</ele>
        <time>2016-05-25T17:16:44Z</time>
      </trkpt>
      <trkpt lat="44.34812" lon="2.5438">
        <ele>516</ele>
        <time>2016-05-25T17:16:53Z</time>
      </trkpt>
      <trkpt lat="44.34831" lon="2.54369">
        <ele>513</ele>
        <time>2016-05-25T17:17:01Z</time>
      </trkpt>
      <trkpt lat="44.34849" lon="2.54359">
        <ele>510</ele>
        <time>2016-05-25T17:17:09Z</time>
      </trkpt>
      <trkpt lat="44.34867" lon="2.54353">
        <ele>508</ele>
        <time>2016-05-25T17:17:16Z</time>
      </trkpt>
      <trkpt lat="44.34881" lon="2.54336">
        <ele>509</ele>
        <time>2016-05-25T17:17:25Z</time>
      </trkpt>
      <trkpt lat="44.34885" lon="2.54311">
        <ele>516</ele>
        <time>2016-05-25T17:17:34Z</time>
      </trkpt>
      <trkpt lat="44.34894" lon="2.54287">
        <ele>522</ele>
        <time>2016-05-25T17:17:44Z</time>
      </trkpt>
      <trkpt lat="44.34905" lon="2.54265">
        <ele>522</ele>
        <time>2016-05-25T17:17:53Z</time>
      </trkpt>
      <trkpt lat="44.34917" lon="2.54244">
        <ele>517</ele>
        <time>2016-05-25T17:18:06Z</time>
      </trkpt>
      <trkpt lat="44.3493" lon="2.54225">
        <ele>513</ele>
        <time>2016-05-25T17:18:18Z</time>
      </trkpt>
      <trkpt lat="44.34945" lon="2.5421">
        <ele>516</ele>
        <time>2016-05-25T17:18:32Z</time>
      </trkpt>
      <trkpt lat="44.34959" lon="2.54194">
        <ele>514</ele>
        <time>2016-05-25T17:18:46Z</time>
      </trkpt>
      <trkpt lat="44.34974" lon="2.54181">
        <ele>508</ele>
        <time>2016-05-25T17:19:00Z</time>
      </trkpt>
      <trkpt lat="44.34992" lon="2.54172">
        <ele>502</ele>
        <time>2016-05-25T17:19:15Z</time>
      </trkpt>
      <trkpt lat="44.35009" lon="2.54165">
        <ele>504</ele>
        <time>2016-05-25T17:19:29Z</time>
      </trkpt>
      <trkpt lat="44.35009" lon="2.54166">
        <ele>507</ele>
        <time>2016-05-25T17:19:30Z</time>
      </trkpt>
    </trkseg>
  </trk>
</gpx>